Observation data for New Home on 08/14/2019      Previous  Date  Next       Current Mesonet Observations  Soil Data  Daily Summary Page  Observations in Plain Language
KNH1 140500Z 08009KT 27/18 A3014 RMK A01 T02700182  RH  059%=      5-min Rain = 0
KNH1 140501Z 08008KT 27/18 A3014 RMK A01 T02700182  RH  059%=      5-min Rain = 0
KNH1 140502Z 07007KT 27/18 A3014 RMK A01 T02700182  RH  059%=      5-min Rain = 0
KNH1 140503Z 08008KT 27/18 A3014 RMK A01 T02690182  RH  059%=      5-min Rain = 0
KNH1 140504Z 08009KT 27/18 A3014 RMK A01 T02690182  RH  059%=      5-min Rain = 0
KNH1 140505Z 07008KT 27/18 A3014 RMK A01 T02690182  RH  059%=      5-min Rain = 0
KNH1 140506Z 08008KT 27/18 A3014 RMK A01 T02700182  RH  059%=      5-min Rain = 0
KNH1 140507Z 08008KT 27/18 A3014 RMK A01 T02690182  RH  059%=      5-min Rain = 0
KNH1 140508Z 08007KT 27/18 A3014 RMK A01 T02700182  RH  059%=      5-min Rain = 0
KNH1 140509Z 08006KT 27/18 A3014 RMK A01 T02690182  RH  059%=      5-min Rain = 0
KNH1 140510Z 09006KT 27/18 A3014 RMK A01 T02690182  RH  059%=      5-min Rain = 0
KNH1 140521Z 07007KT 27/18 A3014 RMK A01 T02680182  RH  059%=      5-min Rain = 0
KNH1 140522Z 07007KT 27/18 A3014 RMK A01 T02680182  RH  059%=      5-min Rain = 0
KNH1 140523Z 08009KT 27/18 A3014 RMK A01 T02670182  RH  060%=      5-min Rain = 0
KNH1 140524Z 08008KT 27/18 A3014 RMK A01 T02670183  RH  060%=      5-min Rain = 0
KNH1 140525Z 08009KT 27/18 A3014 RMK A01 T02670183  RH  060%=      5-min Rain = 0
KNH1 140526Z 07008KT 27/18 A3014 RMK A01 T02670183  RH  060%=      5-min Rain = 0
KNH1 140527Z 07009KT 27/18 A3014 RMK A01 T02670182  RH  060%=      5-min Rain = 0
KNH1 140528Z 07009KT 27/18 A3014 RMK A01 T02660183  RH  060%=      5-min Rain = 0
KNH1 140529Z 08008KT 27/18 A3014 RMK A01 T02660183  RH  060%=      5-min Rain = 0
KNH1 140530Z 08009KT 27/18 A3014 RMK A01 T02660183  RH  060%=      5-min Rain = 0
KNH1 140531Z 07009KT 27/18 A3014 RMK A01 T02660182  RH  060%=      5-min Rain = 0
KNH1 140532Z 08008KT 27/18 A3014 RMK A01 T02660182  RH  060%=      5-min Rain = 0
KNH1 140533Z 08009KT 27/18 A3014 RMK A01 T02660182  RH  060%=      5-min Rain = 0
KNH1 140534Z 07008KT 27/18 A3014 RMK A01 T02660182  RH  060%=      5-min Rain = 0
KNH1 140535Z 08008KT 27/18 A3014 RMK A01 T02660183  RH  060%=      5-min Rain = 0
KNH1 140536Z 08009KT 27/18 A3014 RMK A01 T02660183  RH  060%=      5-min Rain = 0
KNH1 140537Z 08009KT 27/18 A3014 RMK A01 T02650183  RH  060%=      5-min Rain = 0
KNH1 140538Z 08008KT 27/18 A3014 RMK A01 T02650183  RH  060%=      5-min Rain = 0
KNH1 140539Z 09009KT 27/18 A3014 RMK A01 T02650183  RH  060%=      5-min Rain = 0
KNH1 140540Z 09008KT 27/18 A3014 RMK A01 T02650182  RH  060%=      5-min Rain = 0
KNH1 140541Z 09007KT 27/18 A3014 RMK A01 T02650182  RH  060%=      5-min Rain = 0
KNH1 140542Z 09008KT 26/18 A3014 RMK A01 T02640182  RH  061%=      5-min Rain = 0
KNH1 140543Z 09008KT 26/18 A3014 RMK A01 T02640182  RH  061%=      5-min Rain = 0
KNH1 140544Z 09006KT 26/18 A3014 RMK A01 T02640183  RH  061%=      5-min Rain = 0
KNH1 140545Z 10007KT 26/18 A3014 RMK A01 T02640182  RH  061%=      5-min Rain = 0
KNH1 140546Z 09007KT 26/18 A3014 RMK A01 T02630182  RH  061%=      5-min Rain = 0
KNH1 140547Z 09006KT 26/18 A3014 RMK A01 T02630182  RH  061%=      5-min Rain = 0
KNH1 140548Z 09005KT 26/18 A3014 RMK A01 T02630183  RH  061%=      5-min Rain = 0
KNH1 140549Z 09006KT 26/18 A3014 RMK A01 T02620183  RH  062%=      5-min Rain = 0
KNH1 140550Z 09007KT 26/18 A3014 RMK A01 T02620183  RH  062%=      5-min Rain = 0
KNH1 140551Z 09007KT 26/18 A3014 RMK A01 T02610183  RH  062%=      5-min Rain = 0
KNH1 140552Z 09006KT 26/18 A3014 RMK A01 T02610183  RH  062%=      5-min Rain = 0
KNH1 140553Z 09007KT 26/18 A3014 RMK A01 T02610182  RH  062%=      5-min Rain = 0
KNH1 140554Z 08005KT 26/18 A3014 RMK A01 T02610183  RH  062%=      5-min Rain = 0
KNH1 140555Z 08005KT 26/18 A3014 RMK A01 T02600182  RH  062%=      5-min Rain = 0
KNH1 140556Z 08006KT 26/18 A3014 RMK A01 T02600182  RH  062%=      5-min Rain = 0
KNH1 140557Z 09006KT 26/18 A3014 RMK A01 T02600182  RH  062%=      5-min Rain = 0
KNH1 140558Z 08007KT 26/18 A3014 RMK A01 T02600182  RH  062%=      5-min Rain = 0
KNH1 140559Z 08007KT 26/18 A3014 RMK A01 T02600182  RH  062%=      5-min Rain = 0
KNH1 140600Z 09006KT 26/18 A3014 RMK A01 T02600182  RH  062%=      5-min Rain = 0
KNH1 140601Z 09006KT 26/18 A3014 RMK A01 T02600182  RH  062%=      5-min Rain = 0
KNH1 140602Z 09007KT 26/18 A3014 RMK A01 T02600182  RH  062%=      5-min Rain = 0
KNH1 140603Z 09006KT 26/18 A3014 RMK A01 T02600183  RH  062%=      5-min Rain = 0
KNH1 140604Z 09005KT 26/18 A3014 RMK A01 T02600182  RH  062%=      5-min Rain = 0
KNH1 140605Z 10006KT 26/18 A3014 RMK A01 T02590182  RH  062%=      5-min Rain = 0
KNH1 140606Z 10005KT 26/18 A3014 RMK A01 T02590182  RH  063%=      5-min Rain = 0
KNH1 140607Z 10006KT 26/18 A3014 RMK A01 T02590182  RH  063%=      5-min Rain = 0
KNH1 140608Z 09006KT 26/18 A3014 RMK A01 T02580182  RH  063%=      5-min Rain = 0
KNH1 140609Z 10006KT 26/18 A3014 RMK A01 T02580182  RH  063%=      5-min Rain = 0
KNH1 140610Z 10007KT 26/18 A3014 RMK A01 T02580182  RH  063%=      5-min Rain = 0
KNH1 140611Z 10007KT 26/18 A3014 RMK A01 T02580182  RH  063%=      5-min Rain = 0
KNH1 140612Z 10006KT 26/18 A3014 RMK A01 T02580183  RH  063%=      5-min Rain = 0
KNH1 140613Z 10007KT 26/18 A3014 RMK A01 T02580183  RH  063%=      5-min Rain = 0
KNH1 140614Z 11007KT 26/18 A3013 RMK A01 T02570182  RH  063%=      5-min Rain = 0
KNH1 140615Z 11006KT 26/18 A3013 RMK A01 T02570183  RH  063%=      5-min Rain = 0
KNH1 140616Z 10006KT 26/18 A3013 RMK A01 T02570183  RH  063%=      5-min Rain = 0
KNH1 140617Z 11007KT 26/18 A3013 RMK A01 T02570183  RH  064%=      5-min Rain = 0
KNH1 140618Z 10006KT 26/18 A3013 RMK A01 T02560183  RH  064%=      5-min Rain = 0
KNH1 140619Z 11006KT 26/18 A3013 RMK A01 T02560182  RH  064%=      5-min Rain = 0
KNH1 140620Z 10006KT 26/18 A3013 RMK A01 T02560183  RH  064%=      5-min Rain = 0
KNH1 140621Z 10007KT 26/18 A3013 RMK A01 T02560183  RH  064%=      5-min Rain = 0
KNH1 140622Z 10006KT 26/18 A3013 RMK A01 T02560182  RH  064%=      5-min Rain = 0
KNH1 140623Z 10006KT 26/18 A3013 RMK A01 T02560183  RH  064%=      5-min Rain = 0
KNH1 140624Z 10006KT 26/18 A3013 RMK A01 T02550182  RH  064%=      5-min Rain = 0
KNH1 140625Z 09006KT 26/18 A3013 RMK A01 T02550183  RH  064%=      5-min Rain = 0
KNH1 140626Z 10006KT 26/18 A3013 RMK A01 T02550182  RH  064%=      5-min Rain = 0
KNH1 140627Z 10006KT 26/18 A3013 RMK A01 T02550182  RH  064%=      5-min Rain = 0
KNH1 140628Z 10006KT 26/18 A3013 RMK A01 T02550182  RH  064%=      5-min Rain = 0
KNH1 140629Z 10006KT 26/18 A3013 RMK A01 T02550182  RH  064%=      5-min Rain = 0
KNH1 140630Z 09006KT 25/18 A3013 RMK A01 T02540182  RH  064%=      5-min Rain = 0
KNH1 140631Z 10006KT 25/18 A3013 RMK A01 T02540182  RH  064%=      5-min Rain = 0
KNH1 140632Z 09006KT 25/18 A3013 RMK A01 T02540182  RH  064%=      5-min Rain = 0
KNH1 140633Z 09007KT 25/18 A3013 RMK A01 T02540183  RH  065%=      5-min Rain = 0
KNH1 140634Z 08007KT 25/18 A3013 RMK A01 T02540182  RH  064%=      5-min Rain = 0
KNH1 140635Z 08007KT 25/18 A3013 RMK A01 T02540182  RH  064%=      5-min Rain = 0
KNH1 140636Z 08008KT 25/18 A3013 RMK A01 T02540182  RH  065%=      5-min Rain = 0
KNH1 140637Z 08008KT 25/18 A3014 RMK A01 T02540182  RH  064%=      5-min Rain = 0
KNH1 140638Z 08008KT 25/18 A3014 RMK A01 T02540182  RH  064%=      5-min Rain = 0
KNH1 140639Z 08008KT 25/18 A3014 RMK A01 T02540182  RH  064%=      5-min Rain = 0
KNH1 140640Z 08009KT 26/18 A3014 RMK A01 T02550182  RH  064%=      5-min Rain = 0
KNH1 140641Z 08009KT 26/18 A3014 RMK A01 T02550183  RH  064%=      5-min Rain = 0
KNH1 140642Z 08008KT 26/18 A3014 RMK A01 T02550182  RH  064%=      5-min Rain = 0
KNH1 140643Z 08008KT 26/18 A3014 RMK A01 T02550182  RH  064%=      5-min Rain = 0
KNH1 140644Z 08009KT 26/18 A3014 RMK A01 T02550183  RH  064%=      5-min Rain = 0
KNH1 140645Z 08009KT 26/18 A3014 RMK A01 T02550183  RH  064%=      5-min Rain = 0
KNH1 140646Z 08009KT 25/18 A3014 RMK A01 T02540183  RH  064%=      5-min Rain = 0
KNH1 140647Z 08010KT 25/18 A3014 RMK A01 T02540183  RH  065%=      5-min Rain = 0
KNH1 140648Z 07009KT 25/18 A3014 RMK A01 T02540183  RH  065%=      5-min Rain = 0
KNH1 140649Z 07009KT 25/18 A3014 RMK A01 T02540183  RH  065%=      5-min Rain = 0
KNH1 140650Z 07008KT 25/18 A3014 RMK A01 T02540183  RH  065%=      5-min Rain = 0
KNH1 140651Z 07009KT 25/18 A3014 RMK A01 T02540183  RH  065%=      5-min Rain = 0
KNH1 140652Z 07009KT 25/18 A3014 RMK A01 T02530183  RH  065%=      5-min Rain = 0
KNH1 140653Z 08008KT 25/18 A3014 RMK A01 T02540183  RH  065%=      5-min Rain = 0
KNH1 140654Z 08008KT 25/18 A3014 RMK A01 T02530183  RH  065%=      5-min Rain = 0
KNH1 140655Z 08009KT 25/18 A3014 RMK A01 T02530183  RH  065%=      5-min Rain = 0
KNH1 140656Z 08009KT 25/18 A3014 RMK A01 T02530183  RH  065%=      5-min Rain = 0
KNH1 140657Z 08008KT 25/18 A3014 RMK A01 T02530183  RH  065%=      5-min Rain = 0
KNH1 140658Z 08009KT 25/18 A3014 RMK A01 T02530183  RH  065%=      5-min Rain = 0
KNH1 140659Z 08009KT 25/18 A3014 RMK A01 T02530183  RH  065%=      5-min Rain = 0
KNH1 140700Z 08008KT 25/18 A3014 RMK A01 T02530183  RH  065%=      5-min Rain = 0
KNH1 140701Z 08008KT 25/18 A3014 RMK A01 T02530183  RH  065%=      5-min Rain = 0
KNH1 140702Z 09006KT 25/18 A3014 RMK A01 T02530183  RH  065%=      5-min Rain = 0
KNH1 140703Z 08007KT 25/18 A3014 RMK A01 T02530183  RH  065%=      5-min Rain = 0
KNH1 140704Z 09007KT 25/18 A3015 RMK A01 T02520183  RH  065%=      5-min Rain = 0
KNH1 140705Z 09008KT 25/18 A3014 RMK A01 T02520183  RH  066%=      5-min Rain = 0
KNH1 140706Z 08008G13KT 25/18 A3014 RMK A01 T02520184  RH  066%=      5-min Rain = 0
KNH1 140707Z 08009KT 25/18 A3014 RMK A01 T02520184  RH  066%=      5-min Rain = 0
KNH1 140708Z 08008KT 25/18 A3015 RMK A01 T02520183  RH  066%=      5-min Rain = 0
KNH1 140709Z 08008KT 25/18 A3015 RMK A01 T02520184  RH  066%=      5-min Rain = 0
KNH1 140710Z 08009KT 25/18 A3015 RMK A01 T02520184  RH  066%=      5-min Rain = 0
KNH1 140711Z 08011KT 25/18 A3015 RMK A01 T02510184  RH  066%=      5-min Rain = 0
KNH1 140712Z 08008KT 25/18 A3015 RMK A01 T02510184  RH  066%=      5-min Rain = 0
KNH1 140713Z 08012KT 25/18 A3015 RMK A01 T02510184  RH  066%=      5-min Rain = 0
KNH1 140714Z 08009KT 25/18 A3015 RMK A01 T02510184  RH  066%=      5-min Rain = 0
KNH1 140715Z 08008KT 25/18 A3015 RMK A01 T02510184  RH  066%=      5-min Rain = 0
KNH1 140716Z 08010KT 25/19 A3015 RMK A01 T02510185  RH  066%=      5-min Rain = 0
KNH1 140717Z 08008KT 25/18 A3015 RMK A01 T02510184  RH  067%=      5-min Rain = 0
KNH1 140718Z 08007KT 25/18 A3015 RMK A01 T02510184  RH  067%=      5-min Rain = 0
KNH1 140719Z 09007KT 25/18 A3015 RMK A01 T02500184  RH  067%=      5-min Rain = 0
KNH1 140720Z 08008KT 25/18 A3015 RMK A01 T02500184  RH  067%=      5-min Rain = 0
KNH1 140721Z 09007KT 25/18 A3015 RMK A01 T02500184  RH  067%=      5-min Rain = 0
KNH1 140722Z 08008KT 25/18 A3015 RMK A01 T02500184  RH  067%=      5-min Rain = 0
KNH1 140723Z 08009KT 25/18 A3015 RMK A01 T02500184  RH  067%=      5-min Rain = 0
KNH1 140724Z 08009KT 25/18 A3015 RMK A01 T02500184  RH  067%=      5-min Rain = 0
KNH1 140725Z 08008KT 25/18 A3015 RMK A01 T02490184  RH  067%=      5-min Rain = 0
KNH1 140726Z 09008KT 25/18 A3015 RMK A01 T02490184  RH  067%=      5-min Rain = 0
KNH1 140727Z 08007KT 25/18 A3015 RMK A01 T02490184  RH  067%=      5-min Rain = 0
KNH1 140728Z 08008KT 25/19 A3015 RMK A01 T02490185  RH  067%=      5-min Rain = 0
KNH1 140729Z 08007KT 25/19 A3015 RMK A01 T02490185  RH  067%=      5-min Rain = 0
KNH1 140730Z 08009KT 25/19 A3015 RMK A01 T02490185  RH  067%=      5-min Rain = 0
KNH1 140731Z 08008KT 25/19 A3015 RMK A01 T02480185  RH  068%=      5-min Rain = 0
KNH1 140732Z 08010KT 25/19 A3015 RMK A01 T02480185  RH  068%=      5-min Rain = 0
KNH1 140733Z 08009KT 25/19 A3015 RMK A01 T02480185  RH  068%=      5-min Rain = 0
KNH1 140734Z 08010KT 25/19 A3015 RMK A01 T02490185  RH  068%=      5-min Rain = 0
KNH1 140735Z 08009KT 25/19 A3015 RMK A01 T02490185  RH  068%=      5-min Rain = 0
KNH1 140736Z 08011KT 25/19 A3015 RMK A01 T02480185  RH  068%=      5-min Rain = 0
KNH1 140737Z 08009KT 25/19 A3015 RMK A01 T02480185  RH  068%=      5-min Rain = 0
KNH1 140738Z 07010KT 25/19 A3015 RMK A01 T02480185  RH  068%=      5-min Rain = 0
KNH1 140739Z 08009KT 25/19 A3015 RMK A01 T02480185  RH  068%=      5-min Rain = 0
KNH1 140740Z 08010KT 25/19 A3015 RMK A01 T02480185  RH  068%=      5-min Rain = 0
KNH1 140741Z 08010KT 25/19 A3015 RMK A01 T02480185  RH  068%=      5-min Rain = 0
KNH1 140742Z 08009KT 25/19 A3015 RMK A01 T02480185  RH  068%=      5-min Rain = 0
KNH1 140743Z 07010KT 25/19 A3015 RMK A01 T02480185  RH  068%=      5-min Rain = 0
KNH1 140744Z 08010KT 25/19 A3015 RMK A01 T02480185  RH  068%=      5-min Rain = 0
KNH1 140745Z 08011KT 25/19 A3015 RMK A01 T02480185  RH  068%=      5-min Rain = 0
KNH1 140746Z 08010KT 25/19 A3015 RMK A01 T02480185  RH  068%=      5-min Rain = 0
KNH1 140747Z 08011KT 25/19 A3015 RMK A01 T02480185  RH  068%=      5-min Rain = 0
KNH1 140748Z 08010KT 25/19 A3015 RMK A01 T02480185  RH  068%=      5-min Rain = 0
KNH1 140749Z 08009KT 25/19 A3015 RMK A01 T02480185  RH  068%=      5-min Rain = 0
KNH1 140750Z 08010KT 25/19 A3015 RMK A01 T02480185  RH  068%=      5-min Rain = 0
KNH1 140751Z 08009KT 25/19 A3015 RMK A01 T02480185  RH  068%=      5-min Rain = 0
KNH1 140752Z 08011KT 25/19 A3015 RMK A01 T02480185  RH  068%=      5-min Rain = 0
KNH1 140753Z 09010KT 25/19 A3015 RMK A01 T02480186  RH  068%=      5-min Rain = 0
KNH1 140754Z 09009KT 25/19 A3015 RMK A01 T02480186  RH  068%=      5-min Rain = 0
KNH1 140755Z 09009KT 25/19 A3015 RMK A01 T02480186  RH  068%=      5-min Rain = 0
KNH1 140756Z 09010KT 25/19 A3014 RMK A01 T02470186  RH  068%=      5-min Rain = 0
KNH1 140757Z 09010KT 25/19 A3014 RMK A01 T02480186  RH  069%=      5-min Rain = 0
KNH1 140758Z 09009KT 25/19 A3014 RMK A01 T02470186  RH  069%=      5-min Rain = 0
KNH1 140759Z 09010KT 25/19 A3014 RMK A01 T02480186  RH  069%=      5-min Rain = 0
KNH1 140800Z 09011KT 25/19 A3014 RMK A01 T02470186  RH  069%=      5-min Rain = 0
KNH1 140801Z 09009KT 25/19 A3014 RMK A01 T02470186  RH  069%=      5-min Rain = 0
KNH1 140802Z 08009KT 25/19 A3014 RMK A01 T02470186  RH  069%=      5-min Rain = 0
KNH1 140803Z 08009KT 25/19 A3014 RMK A01 T02470186  RH  069%=      5-min Rain = 0
KNH1 140804Z 08009KT 25/19 A3014 RMK A01 T02460186  RH  069%=      5-min Rain = 0
KNH1 140805Z 08010KT 25/19 A3014 RMK A01 T02460186  RH  069%=      5-min Rain = 0
KNH1 140806Z 08009KT 25/19 A3014 RMK A01 T02470186  RH  069%=      5-min Rain = 0
KNH1 140807Z 08008KT 25/19 A3014 RMK A01 T02470186  RH  069%=      5-min Rain = 0
KNH1 140808Z 08009KT 25/19 A3015 RMK A01 T02470186  RH  069%=      5-min Rain = 0
KNH1 140809Z 08010KT 25/19 A3015 RMK A01 T02470186  RH  069%=      5-min Rain = 0
KNH1 140810Z 08010KT 25/19 A3015 RMK A01 T02470186  RH  069%=      5-min Rain = 0
KNH1 140811Z 07009KT 25/19 A3015 RMK A01 T02470186  RH  069%=      5-min Rain = 0
KNH1 140812Z 08007KT 25/19 A3015 RMK A01 T02470186  RH  069%=      5-min Rain = 0
KNH1 140813Z 08009KT 25/19 A3015 RMK A01 T02460186  RH  069%=      5-min Rain = 0
KNH1 140814Z 07010KT 25/19 A3015 RMK A01 T02460186  RH  069%=      5-min Rain = 0
KNH1 140815Z 08009KT 25/19 A3015 RMK A01 T02460186  RH  069%=      5-min Rain = 0
KNH1 140816Z 07009KT 25/19 A3015 RMK A01 T02460186  RH  069%=      5-min Rain = 0
KNH1 140817Z 07011KT 25/19 A3015 RMK A01 T02460186  RH  069%=      5-min Rain = 0
KNH1 140818Z 08011KT 25/19 A3015 RMK A01 T02460186  RH  069%=      5-min Rain = 0
KNH1 140819Z 08011KT 25/19 A3015 RMK A01 T02460186  RH  069%=      5-min Rain = 0
KNH1 140820Z 08011KT 25/19 A3015 RMK A01 T02460186  RH  069%=      5-min Rain = 0
KNH1 140821Z 08011KT 25/19 A3015 RMK A01 T02460186  RH  069%=      5-min Rain = 0
KNH1 140822Z 08010KT 25/19 A3015 RMK A01 T02470186  RH  069%=      5-min Rain = 0
KNH1 140823Z 07011KT 25/19 A3015 RMK A01 T02470186  RH  069%=      5-min Rain = 0
KNH1 140824Z 07011KT 25/19 A3015 RMK A01 T02470186  RH  069%=      5-min Rain = 0
KNH1 140825Z 07012KT 25/19 A3015 RMK A01 T02460186  RH  069%=      5-min Rain = 0
KNH1 140826Z 08011KT 25/19 A3015 RMK A01 T02460186  RH  069%=      5-min Rain = 0
KNH1 140827Z 08011KT 25/19 A3015 RMK A01 T02460186  RH  069%=      5-min Rain = 0
KNH1 140828Z 08009KT 25/19 A3015 RMK A01 T02460186  RH  069%=      5-min Rain = 0
KNH1 140829Z 07010KT 25/19 A3015 RMK A01 T02460186  RH  069%=      5-min Rain = 0
KNH1 140830Z 08011KT 25/19 A3015 RMK A01 T02460186  RH  069%=      5-min Rain = 0
KNH1 140831Z 07012KT 25/19 A3015 RMK A01 T02460186  RH  069%=      5-min Rain = 0
KNH1 140832Z 07012KT 25/19 A3015 RMK A01 T02460186  RH  069%=      5-min Rain = 0
KNH1 140833Z 08012KT 25/19 A3015 RMK A01 T02460186  RH  069%=      5-min Rain = 0
KNH1 140834Z 07009KT 25/19 A3015 RMK A01 T02460186  RH  069%=      5-min Rain = 0
KNH1 140835Z 07013KT 25/19 A3015 RMK A01 T02460186  RH  069%=      5-min Rain = 0
KNH1 140836Z 07011KT 25/19 A3015 RMK A01 T02460186  RH  069%=      5-min Rain = 0
KNH1 140837Z 07009KT 25/19 A3015 RMK A01 T02460186  RH  069%=      5-min Rain = 0
KNH1 140838Z 07012KT 25/19 A3015 RMK A01 T02460186  RH  069%=      5-min Rain = 0
KNH1 140839Z 07010KT 25/19 A3015 RMK A01 T02460186  RH  069%=      5-min Rain = 0
KNH1 140840Z 07009KT 25/19 A3015 RMK A01 T02450186  RH  069%=      5-min Rain = 0
KNH1 140841Z 07009KT 25/19 A3015 RMK A01 T02450186  RH  070%=      5-min Rain = 0
KNH1 140842Z 07011KT 24/19 A3015 RMK A01 T02440186  RH  070%=      5-min Rain = 0
KNH1 140843Z 07010KT 24/19 A3015 RMK A01 T02440186  RH  070%=      5-min Rain = 0
KNH1 140844Z 08009KT 24/19 A3015 RMK A01 T02440186  RH  070%=      5-min Rain = 0
KNH1 140845Z 07008KT 24/19 A3014 RMK A01 T02440186  RH  070%=      5-min Rain = 0
KNH1 140846Z 08008KT 24/19 A3015 RMK A01 T02440185  RH  070%=      5-min Rain = 0
KNH1 140847Z 07008KT 24/19 A3015 RMK A01 T02440185  RH  070%=      5-min Rain = 0
KNH1 140848Z 07008KT 24/19 A3015 RMK A01 T02430185  RH  070%=      5-min Rain = 0
KNH1 140849Z 07008KT 24/19 A3015 RMK A01 T02430185  RH  070%=      5-min Rain = 0
KNH1 140850Z 07007KT 24/19 A3015 RMK A01 T02430185  RH  070%=      5-min Rain = 0
KNH1 140851Z 07009KT 24/19 A3015 RMK A01 T02430186  RH  070%=      5-min Rain = 0
KNH1 140852Z 08007KT 24/19 A3015 RMK A01 T02430186  RH  070%=      5-min Rain = 0
KNH1 140853Z 07007KT 24/19 A3015 RMK A01 T02430186  RH  070%=      5-min Rain = 0
KNH1 140854Z 07007KT 24/19 A3015 RMK A01 T02420186  RH  071%=      5-min Rain = 0
KNH1 140855Z 07008KT 24/19 A3014 RMK A01 T02420185  RH  071%=      5-min Rain = 0
KNH1 140856Z 07007KT 24/19 A3014 RMK A01 T02420186  RH  071%=      5-min Rain = 0
KNH1 140857Z 07007KT 24/19 A3014 RMK A01 T02420185  RH  071%=      5-min Rain = 0
KNH1 140858Z 07008KT 24/19 A3014 RMK A01 T02420186  RH  071%=      5-min Rain = 0
KNH1 140859Z 07007KT 24/19 A3014 RMK A01 T02410185  RH  071%=      5-min Rain = 0
KNH1 140900Z 07007KT 24/19 A3014 RMK A01 T02410185  RH  071%=      5-min Rain = 0
KNH1 140901Z 07007KT 24/19 A3014 RMK A01 T02410185  RH  071%=      5-min Rain = 0
KNH1 140902Z 07007KT 24/19 A3014 RMK A01 T02410185  RH  071%=      5-min Rain = 0
KNH1 140903Z 07008KT 24/19 A3014 RMK A01 T02400185  RH  071%=      5-min Rain = 0
KNH1 140904Z 08008KT 24/19 A3014 RMK A01 T02400185  RH  071%=      5-min Rain = 0
KNH1 140905Z 07007KT 24/19 A3014 RMK A01 T02400185  RH  071%=      5-min Rain = 0
KNH1 140906Z 07007KT 24/19 A3014 RMK A01 T02400185  RH  071%=      5-min Rain = 0
KNH1 140907Z 07007KT 24/19 A3014 RMK A01 T02400185  RH  071%=      5-min Rain = 0
KNH1 140908Z 07006KT 24/19 A3014 RMK A01 T02390185  RH  072%=      5-min Rain = 0
KNH1 140909Z 07007KT 24/19 A3014 RMK A01 T02390185  RH  072%=      5-min Rain = 0
KNH1 140910Z 06007KT 24/19 A3014 RMK A01 T02400185  RH  072%=      5-min Rain = 0
KNH1 140911Z 06005KT 24/19 A3014 RMK A01 T02390185  RH  072%=      5-min Rain = 0
KNH1 140912Z 06006KT 24/19 A3014 RMK A01 T02390185  RH  072%=      5-min Rain = 0
KNH1 140913Z 05006KT 24/19 A3014 RMK A01 T02390185  RH  072%=      5-min Rain = 0
KNH1 140914Z 06005KT 24/19 A3014 RMK A01 T02390185  RH  072%=      5-min Rain = 0
KNH1 140915Z 06006KT 24/19 A3014 RMK A01 T02380185  RH  072%=      5-min Rain = 0
KNH1 140916Z 06005KT 24/19 A3014 RMK A01 T02390185  RH  072%=      5-min Rain = 0
KNH1 140917Z 06005KT 24/19 A3014 RMK A01 T02380185  RH  072%=      5-min Rain = 0
KNH1 140918Z 06006KT 24/18 A3014 RMK A01 T02380184  RH  072%=      5-min Rain = 0
KNH1 140919Z 06005KT 24/19 A3014 RMK A01 T02380185  RH  072%=      5-min Rain = 0
KNH1 140920Z 06005KT 24/19 A3014 RMK A01 T02370185  RH  072%=      5-min Rain = 0
KNH1 140921Z 06006KT 24/18 A3014 RMK A01 T02370184  RH  072%=      5-min Rain = 0
KNH1 140922Z 07005KT 24/19 A3014 RMK A01 T02370185  RH  072%=      5-min Rain = 0
KNH1 140923Z 06006KT 24/18 A3014 RMK A01 T02370184  RH  072%=      5-min Rain = 0
KNH1 140924Z 06006KT 24/19 A3014 RMK A01 T02370185  RH  073%=      5-min Rain = 0
KNH1 140925Z 07006KT 24/19 A3014 RMK A01 T02370185  RH  073%=      5-min Rain = 0
KNH1 140926Z 07006KT 24/18 A3013 RMK A01 T02360184  RH  073%=      5-min Rain = 0
KNH1 140927Z 06006KT 24/18 A3013 RMK A01 T02360184  RH  073%=      5-min Rain = 0
KNH1 140928Z 06006KT 24/18 A3013 RMK A01 T02350184  RH  073%=      5-min Rain = 0
KNH1 140929Z 06006KT 24/18 A3013 RMK A01 T02360184  RH  073%=      5-min Rain = 0
KNH1 140930Z 07006KT 24/18 A3013 RMK A01 T02360184  RH  073%=      5-min Rain = 0
KNH1 140931Z 07006KT 24/19 A3014 RMK A01 T02360185  RH  073%=      5-min Rain = 0
KNH1 140932Z 07007KT 24/18 A3014 RMK A01 T02360184  RH  073%=      5-min Rain = 0
KNH1 140933Z 07006KT 24/18 A3014 RMK A01 T02360184  RH  073%=      5-min Rain = 0
KNH1 140934Z 07005KT 24/18 A3014 RMK A01 T02350184  RH  073%=      5-min Rain = 0
KNH1 140935Z 07006KT 24/18 A3014 RMK A01 T02350184  RH  073%=      5-min Rain = 0
KNH1 140936Z 06007KT 24/18 A3014 RMK A01 T02350184  RH  073%=      5-min Rain = 0
KNH1 140937Z 06005KT 24/18 A3014 RMK A01 T02350184  RH  073%=      5-min Rain = 0
KNH1 140938Z 06006KT 24/18 A3014 RMK A01 T02350184  RH  073%=      5-min Rain = 0
KNH1 140939Z 06005KT 24/18 A3014 RMK A01 T02350184  RH  073%=      5-min Rain = 0
KNH1 140940Z 06006KT 24/18 A3014 RMK A01 T02350184  RH  073%=      5-min Rain = 0
KNH1 140941Z 06007KT 24/18 A3014 RMK A01 T02350184  RH  073%=      5-min Rain = 0
KNH1 140942Z 06007KT 24/18 A3014 RMK A01 T02350184  RH  073%=      5-min Rain = 0
KNH1 140943Z 06008KT 23/18 A3014 RMK A01 T02340184  RH  073%=      5-min Rain = 0
KNH1 140944Z 06006KT 23/18 A3014 RMK A01 T02340184  RH  073%=      5-min Rain = 0
KNH1 140945Z 07007KT 23/18 A3014 RMK A01 T02340184  RH  073%=      5-min Rain = 0
KNH1 140946Z 06005KT 23/18 A3014 RMK A01 T02340184  RH  073%=      5-min Rain = 0
KNH1 140947Z 06006KT 23/18 A3014 RMK A01 T02340184  RH  073%=      5-min Rain = 0
KNH1 140948Z 06006KT 23/18 A3014 RMK A01 T02340184  RH  073%=      5-min Rain = 0
KNH1 140949Z 07006KT 23/18 A3014 RMK A01 T02340184  RH  074%=      5-min Rain = 0
KNH1 140950Z 07007KT 23/18 A3014 RMK A01 T02340184  RH  074%=      5-min Rain = 0
KNH1 140951Z 07006KT 23/18 A3014 RMK A01 T02340184  RH  074%=      5-min Rain = 0
KNH1 140952Z 07006KT 23/18 A3014 RMK A01 T02340184  RH  074%=      5-min Rain = 0
KNH1 140953Z 06006KT 23/18 A3014 RMK A01 T02330184  RH  074%=      5-min Rain = 0
KNH1 140954Z 06006KT 23/18 A3014 RMK A01 T02330184  RH  074%=      5-min Rain = 0
KNH1 140955Z 05006KT 23/18 A3014 RMK A01 T02330184  RH  074%=      5-min Rain = 0
KNH1 140956Z 05006KT 23/18 A3014 RMK A01 T02330184  RH  074%=      5-min Rain = 0
KNH1 140957Z 06006KT 23/18 A3014 RMK A01 T02330184  RH  074%=      5-min Rain = 0
KNH1 140958Z 05006KT 23/18 A3014 RMK A01 T02330184  RH  074%=      5-min Rain = 0
KNH1 140959Z 05007KT 23/18 A3014 RMK A01 T02330184  RH  074%=      5-min Rain = 0
KNH1 141000Z 05007KT 23/18 A3014 RMK A01 T02330184  RH  074%=      5-min Rain = 0
KNH1 141001Z 05007KT 23/18 A3014 RMK A01 T02330184  RH  074%=      5-min Rain = 0
KNH1 141002Z 05006KT 23/18 A3014 RMK A01 T02330184  RH  074%=      5-min Rain = 0
KNH1 141003Z 05007KT 23/18 A3014 RMK A01 T02330184  RH  074%=      5-min Rain = 0
KNH1 141004Z 05006KT 23/18 A3015 RMK A01 T02330184  RH  074%=      5-min Rain = 0
KNH1 141005Z 05007KT 23/18 A3015 RMK A01 T02330184  RH  074%=      5-min Rain = 0
KNH1 141006Z 05006KT 23/18 A3015 RMK A01 T02330184  RH  074%=      5-min Rain = 0
KNH1 141007Z 06007KT 23/18 A3015 RMK A01 T02330184  RH  074%=      5-min Rain = 0
KNH1 141008Z 06007KT 23/18 A3015 RMK A01 T02330184  RH  074%=      5-min Rain = 0
KNH1 141009Z 06008KT 23/18 A3015 RMK A01 T02330184  RH  074%=      5-min Rain = 0
KNH1 141010Z 06007KT 23/18 A3015 RMK A01 T02330184  RH  074%=      5-min Rain = 0
KNH1 141011Z 05006KT 23/18 A3015 RMK A01 T02330184  RH  074%=      5-min Rain = 0
KNH1 141012Z 06007KT 23/18 A3015 RMK A01 T02330184  RH  074%=      5-min Rain = 0
KNH1 141013Z 05007KT 23/18 A3015 RMK A01 T02330183  RH  074%=      5-min Rain = 0
KNH1 141014Z 05007KT 23/18 A3015 RMK A01 T02330183  RH  074%=      5-min Rain = 0
KNH1 141015Z 06006KT 23/18 A3015 RMK A01 T02330184  RH  074%=      5-min Rain = 0
KNH1 141016Z 05007KT 23/18 A3015 RMK A01 T02330184  RH  074%=      5-min Rain = 0
KNH1 141017Z 06007KT 23/18 A3015 RMK A01 T02330184  RH  074%=      5-min Rain = 0
KNH1 141018Z 05006KT 23/18 A3015 RMK A01 T02330184  RH  074%=      5-min Rain = 0
KNH1 141019Z 06006KT 23/18 A3015 RMK A01 T02330184  RH  074%=      5-min Rain = 0
KNH1 141020Z 05007KT 23/18 A3015 RMK A01 T02340184  RH  074%=      5-min Rain = 0
KNH1 141021Z 06009KT 23/18 A3015 RMK A01 T02330184  RH  074%=      5-min Rain = 0
KNH1 141022Z 06007KT 23/18 A3015 RMK A01 T02330184  RH  074%=      5-min Rain = 0
KNH1 141023Z 06007KT 23/18 A3015 RMK A01 T02330183  RH  073%=      5-min Rain = 0
KNH1 141024Z 06006KT 23/18 A3015 RMK A01 T02330183  RH  073%=      5-min Rain = 0
KNH1 141025Z 06007KT 23/18 A3015 RMK A01 T02330183  RH  073%=      5-min Rain = 0
KNH1 141026Z 06007KT 23/18 A3015 RMK A01 T02330183  RH  074%=      5-min Rain = 0
KNH1 141027Z 06007KT 23/18 A3015 RMK A01 T02320183  RH  074%=      5-min Rain = 0
KNH1 141028Z 05008KT 23/18 A3015 RMK A01 T02320183  RH  074%=      5-min Rain = 0
KNH1 141029Z 06006KT 23/18 A3015 RMK A01 T02320183  RH  074%=      5-min Rain = 0
KNH1 141030Z 05007KT 23/18 A3015 RMK A01 T02320183  RH  074%=      5-min Rain = 0
KNH1 141031Z 06008KT 23/18 A3015 RMK A01 T02330183  RH  074%=      5-min Rain = 0
KNH1 141032Z 06006KT 23/18 A3015 RMK A01 T02320183  RH  074%=      5-min Rain = 0
KNH1 141033Z 06008KT 23/18 A3015 RMK A01 T02320183  RH  074%=      5-min Rain = 0
KNH1 141034Z 06007KT 23/18 A3015 RMK A01 T02320183  RH  074%=      5-min Rain = 0
KNH1 141035Z 06007KT 23/18 A3015 RMK A01 T02320182  RH  074%=      5-min Rain = 0
KNH1 141036Z 06007KT 23/18 A3015 RMK A01 T02320183  RH  074%=      5-min Rain = 0
KNH1 141037Z 06007KT 23/18 A3015 RMK A01 T02320183  RH  074%=      5-min Rain = 0
KNH1 141038Z 06007KT 23/18 A3015 RMK A01 T02320183  RH  074%=      5-min Rain = 0
KNH1 141039Z 05007KT 23/18 A3015 RMK A01 T02320183  RH  074%=      5-min Rain = 0
KNH1 141040Z 05007KT 23/18 A3015 RMK A01 T02310182  RH  074%=      5-min Rain = 0
KNH1 141041Z 05008G13KT 23/18 A3015 RMK A01 T02310182  RH  074%=      5-min Rain = 0
KNH1 141042Z 05008KT 23/18 A3015 RMK A01 T02320183  RH  074%=      5-min Rain = 0
KNH1 141043Z 05008KT 23/18 A3016 RMK A01 T02310182  RH  074%=      5-min Rain = 0
KNH1 141044Z 06008KT 23/18 A3015 RMK A01 T02310182  RH  074%=      5-min Rain = 0
KNH1 141045Z 06008KT 23/18 A3016 RMK A01 T02310182  RH  074%=      5-min Rain = 0
KNH1 141046Z 05008KT 23/18 A3016 RMK A01 T02320182  RH  074%=      5-min Rain = 0
KNH1 141047Z 06008KT 23/18 A3016 RMK A01 T02310182  RH  074%=      5-min Rain = 0
KNH1 141048Z 05008KT 23/18 A3016 RMK A01 T02310182  RH  074%=      5-min Rain = 0
KNH1 141049Z 05009KT 23/18 A3016 RMK A01 T02320182  RH  074%=      5-min Rain = 0
KNH1 141050Z 05009KT 23/18 A3016 RMK A01 T02320182  RH  074%=      5-min Rain = 0
KNH1 141051Z 05009KT 23/18 A3016 RMK A01 T02320183  RH  074%=      5-min Rain = 0
KNH1 141052Z 05009KT 23/18 A3016 RMK A01 T02320182  RH  074%=      5-min Rain = 0
KNH1 141053Z 05008KT 23/18 A3016 RMK A01 T02320182  RH  074%=      5-min Rain = 0
KNH1 141054Z 05008KT 23/18 A3016 RMK A01 T02320182  RH  073%=      5-min Rain = 0
KNH1 141055Z 05009KT 23/18 A3016 RMK A01 T02320182  RH  073%=      5-min Rain = 0
KNH1 141056Z 05010KT 23/18 A3016 RMK A01 T02320182  RH  073%=      5-min Rain = 0
KNH1 141057Z 05008KT 23/18 A3016 RMK A01 T02320182  RH  073%=      5-min Rain = 0
KNH1 141058Z 05011KT 23/18 A3016 RMK A01 T02320182  RH  073%=      5-min Rain = 0
KNH1 141059Z 05012KT 23/18 A3016 RMK A01 T02330182  RH  073%=      5-min Rain = 0
KNH1 141100Z 05011KT 23/18 A3016 RMK A01 T02330182  RH  073%=      5-min Rain = 0
KNH1 141101Z 05009KT 23/18 A3017 RMK A01 T02330182  RH  073%=      5-min Rain = 0
KNH1 141102Z 05010KT 23/18 A3016 RMK A01 T02340182  RH  073%=      5-min Rain = 0
KNH1 141103Z 05009KT 23/18 A3016 RMK A01 T02340182  RH  073%=      5-min Rain = 0
KNH1 141104Z 05010KT 23/18 A3016 RMK A01 T02340182  RH  072%=      5-min Rain = 0
KNH1 141105Z 05012G17KT 23/18 A3016 RMK A01 T02340182  RH  072%=      5-min Rain = 0
KNH1 141106Z 06013KT 23/18 A3016 RMK A01 T02340181  RH  072%=      5-min Rain = 0
KNH1 141107Z 05013KT 23/18 A3017 RMK A01 T02340181  RH  072%=      5-min Rain = 0
KNH1 141108Z 05013KT 23/18 A3016 RMK A01 T02340181  RH  072%=      5-min Rain = 0
KNH1 141109Z 05011G17KT 23/18 A3017 RMK A01 T02340181  RH  072%=      5-min Rain = 0
KNH1 141110Z 04012G19KT 23/18 A3017 RMK A01 T02340181  RH  072%=      5-min Rain = 0
KNH1 141111Z 04013KT 23/18 A3017 RMK A01 T02340181  RH  072%=      5-min Rain = 0
KNH1 141112Z 04012KT 23/18 A3017 RMK A01 T02340181  RH  072%=      5-min Rain = 0
KNH1 141113Z 04016KT 23/18 A3017 RMK A01 T02340180  RH  072%=      5-min Rain = 0
KNH1 141114Z 05015G20KT 23/18 A3017 RMK A01 T02340180  RH  072%=      5-min Rain = 0
KNH1 141115Z 05011G17KT 23/18 A3017 RMK A01 T02330179  RH  072%=      5-min Rain = 0
KNH1 141116Z 05011G16KT 23/18 A3017 RMK A01 T02330179  RH  072%=      5-min Rain = 0
KNH1 141117Z 05015KT 23/18 A3017 RMK A01 T02330178  RH  071%=      5-min Rain = 0
KNH1 141118Z 05015KT 23/18 A3017 RMK A01 T02320177  RH  071%=      5-min Rain = 0
KNH1 141119Z 05013G18KT 23/18 A3017 RMK A01 T02320177  RH  071%=      5-min Rain = 0
KNH1 141120Z 05012G17KT 23/18 A3018 RMK A01 T02320177  RH  071%=      5-min Rain = 0
KNH1 141121Z 05012G19KT 23/18 A3018 RMK A01 T02310177  RH  071%=      5-min Rain = 0
KNH1 141122Z 06013G18KT 23/18 A3018 RMK A01 T02310177  RH  072%=      5-min Rain = 0
KNH1 141123Z 05012KT 23/18 A3018 RMK A01 T02310177  RH  072%=      5-min Rain = 0
KNH1 141124Z 05010KT 23/18 A3018 RMK A01 T02310177  RH  072%=      5-min Rain = 0
KNH1 141125Z 05010KT 23/18 A3018 RMK A01 T02300177  RH  072%=      5-min Rain = 0
KNH1 141126Z 05011KT 23/18 A3018 RMK A01 T02300177  RH  072%=      5-min Rain = 0
KNH1 141127Z 05010KT 23/18 A3018 RMK A01 T02300177  RH  072%=      5-min Rain = 0
KNH1 141128Z 05011KT 23/18 A3018 RMK A01 T02290177  RH  072%=      5-min Rain = 0
KNH1 141129Z 06012G17KT 23/18 A3018 RMK A01 T02290177  RH  072%=      5-min Rain = 0
KNH1 141130Z 04014G20KT 23/18 A3018 RMK A01 T02280177  RH  073%=      5-min Rain = 0
KNH1 141131Z 06011G16KT 23/18 A3019 RMK A01 T02280178  RH  073%=      5-min Rain = 0
KNH1 141132Z 05012G17KT 23/18 A3019 RMK A01 T02270178  RH  074%=      5-min Rain = 0
KNH1 141133Z 06013G19KT 23/18 A3019 RMK A01 T02270178  RH  074%=      5-min Rain = 0
KNH1 141134Z 06011G20KT 23/18 A3019 RMK A01 T02260178  RH  074%=      5-min Rain = 0
KNH1 141135Z 06013KT 23/18 A3019 RMK A01 T02250179  RH  075%=      5-min Rain = 0
KNH1 141136Z 06013G18KT 23/18 A3019 RMK A01 T02250179  RH  075%=      5-min Rain = 0
KNH1 141137Z 06014KT 22/18 A3018 RMK A01 T02240179  RH  075%=      5-min Rain = 0
KNH1 141138Z 06015KT 22/18 A3019 RMK A01 T02240179  RH  076%=      5-min Rain = 0
KNH1 141139Z 07013KT 22/18 A3019 RMK A01 T02240179  RH  076%=      5-min Rain = 0
KNH1 141140Z 07013G19KT 22/18 A3018 RMK A01 T02230179  RH  076%=      5-min Rain = 0
KNH1 141141Z 06013KT 22/18 A3019 RMK A01 T02230179  RH  076%=      5-min Rain = 0
KNH1 141142Z 06012KT 22/18 A3019 RMK A01 T02230179  RH  076%=      5-min Rain = 0
KNH1 141143Z 07012KT 22/18 A3019 RMK A01 T02230179  RH  076%=      5-min Rain = 0
KNH1 141144Z 06012KT 22/18 A3019 RMK A01 T02220179  RH  076%=      5-min Rain = 0
KNH1 141145Z 07013G19KT 22/18 A3019 RMK A01 T02220179  RH  076%=      5-min Rain = 0
KNH1 141146Z 07012KT 22/18 A3019 RMK A01 T02220179  RH  076%=      5-min Rain = 0
KNH1 141147Z 07011KT 22/18 A3019 RMK A01 T02220179  RH  076%=      5-min Rain = 0
KNH1 141148Z 06013KT 22/18 A3019 RMK A01 T02220179  RH  077%=      5-min Rain = 0
KNH1 141149Z 06012G17KT 22/18 A3019 RMK A01 T02220179  RH  077%=      5-min Rain = 0
KNH1 141150Z 06011KT 22/18 A3019 RMK A01 T02210179  RH  077%=      5-min Rain = 0
KNH1 141151Z 06012KT 22/18 A3019 RMK A01 T02210178  RH  077%=      5-min Rain = 0
KNH1 141152Z 06013KT 22/18 A3019 RMK A01 T02210178  RH  077%=      5-min Rain = 0
KNH1 141153Z 06011KT 22/18 A3019 RMK A01 T02210178  RH  077%=      5-min Rain = 0
KNH1 141154Z 06010KT 22/18 A3019 RMK A01 T02210179  RH  077%=      5-min Rain = 0
KNH1 141155Z 06015G22KT 22/18 A3019 RMK A01 T02200178  RH  077%=      5-min Rain = 0
KNH1 141156Z 06014KT 22/18 A3019 RMK A01 T02200178  RH  077%=      5-min Rain = 0
KNH1 141157Z 06011G18KT 22/18 A3019 RMK A01 T02200177  RH  077%=      5-min Rain = 0
KNH1 141158Z 06013KT 22/18 A3019 RMK A01 T02190177  RH  077%=      5-min Rain = 0
KNH1 141159Z 05011KT 22/18 A3019 RMK A01 T02190177  RH  077%=      5-min Rain = 0
KNH1 141200Z 06010KT 22/18 A3019 RMK A01 T02190177  RH  077%=      5-min Rain = 0
KNH1 141201Z 05014G19KT 22/18 A3019 RMK A01 T02190176  RH  077%=      5-min Rain = 0
KNH1 141202Z 05015KT 22/18 A3019 RMK A01 T02190176  RH  077%=      5-min Rain = 0
KNH1 141203Z 05013KT 22/18 A3019 RMK A01 T02180176  RH  077%=      5-min Rain = 0
KNH1 141204Z 06013G18KT 22/18 A3019 RMK A01 T02180175  RH  076%=      5-min Rain = 0
KNH1 141205Z 05012G18KT 22/18 A3019 RMK A01 T02180175  RH  076%=      5-min Rain = 0
KNH1 141206Z 05011KT 22/17 A3019 RMK A01 T02180174  RH  076%=      5-min Rain = 0
KNH1 141207Z 05011KT 22/17 A3019 RMK A01 T02170174  RH  076%=      5-min Rain = 0
KNH1 141208Z 06012KT 22/17 A3019 RMK A01 T02170174  RH  076%=      5-min Rain = 0
KNH1 141209Z 05011KT 22/17 A302 RMK A01 T02170174  RH  077%=      5-min Rain = 0
KNH1 141210Z 05010KT 22/17 A302 RMK A01 T02170174  RH  077%=      5-min Rain = 0
KNH1 141211Z 05009KT 22/17 A302 RMK A01 T02170174  RH  077%=      5-min Rain = 0
KNH1 141212Z 05009KT 22/18 A302 RMK A01 T02170175  RH  077%=      5-min Rain = 0
KNH1 141213Z 05009KT 22/17 A302 RMK A01 T02160174  RH  077%=      5-min Rain = 0
KNH1 141214Z 06010G15KT 22/17 A302 RMK A01 T02160174  RH  077%=      5-min Rain = 0
KNH1 141215Z 06009KT 22/17 A302 RMK A01 T02150173  RH  077%=      5-min Rain = 0
KNH1 141216Z 05013KT 22/17 A302 RMK A01 T02150172  RH  076%=      5-min Rain = 0
KNH1 141217Z 06013KT 22/17 A302 RMK A01 T02150171  RH  076%=      5-min Rain = 0
KNH1 141218Z 06013G18KT 22/17 A302 RMK A01 T02150170  RH  076%=      5-min Rain = 0
KNH1 141219Z 06012KT 22/17 A302 RMK A01 T02150170  RH  076%=      5-min Rain = 0
KNH1 141220Z 06012KT 22/17 A302 RMK A01 T02150170  RH  076%=      5-min Rain = 0
KNH1 141221Z 06011G16KT 21/17 A302 RMK A01 T02140169  RH  076%=      5-min Rain = 0
KNH1 141222Z 06012KT 21/17 A302 RMK A01 T02140170  RH  076%=      5-min Rain = 0
KNH1 141223Z 06013G19KT 21/17 A302 RMK A01 T02140169  RH  076%=      5-min Rain = 0
KNH1 141224Z 06012KT 21/17 A302 RMK A01 T02140169  RH  076%=      5-min Rain = 0
KNH1 141225Z 05011KT 21/17 A302 RMK A01 T02130169  RH  076%=      5-min Rain = 0
KNH1 141226Z 05010KT 21/17 A302 RMK A01 T02140170  RH  076%=      5-min Rain = 0
KNH1 141227Z 05012KT 21/17 A302 RMK A01 T02140170  RH  076%=      5-min Rain = 0
KNH1 141228Z 05011KT 21/17 A302 RMK A01 T02130169  RH  076%=      5-min Rain = 0
KNH1 141229Z 05014G19KT 21/17 A302 RMK A01 T02130168  RH  075%=      5-min Rain = 0
KNH1 141230Z 05014KT 21/17 A302 RMK A01 T02130167  RH  075%=      5-min Rain = 0
KNH1 141231Z 05012G18KT 21/17 A302 RMK A01 T02130167  RH  075%=      5-min Rain = 0
KNH1 141232Z 05014G19KT 21/17 A302 RMK A01 T02120166  RH  075%=      5-min Rain = 0
KNH1 141233Z 05013KT 21/17 A302 RMK A01 T02120165  RH  074%=      5-min Rain = 0
KNH1 141234Z 06010G15KT 21/16 A302 RMK A01 T02120164  RH  074%=      5-min Rain = 0
KNH1 141235Z 06012KT 21/16 A302 RMK A01 T02110163  RH  074%=      5-min Rain = 0
KNH1 141236Z 06016KT 21/16 A302 RMK A01 T02110162  RH  074%=      5-min Rain = 0
KNH1 141237Z 06013KT 21/16 A302 RMK A01 T02110162  RH  073%=      5-min Rain = 0
KNH1 141238Z 06011KT 21/16 A302 RMK A01 T02110162  RH  074%=      5-min Rain = 0
KNH1 141239Z 06013KT 21/16 A302 RMK A01 T02110162  RH  074%=      5-min Rain = 0
KNH1 141240Z 05012KT 21/16 A302 RMK A01 T02100162  RH  074%=      5-min Rain = 0
KNH1 141241Z 05011KT 21/16 A3021 RMK A01 T02100162  RH  074%=      5-min Rain = 0
KNH1 141242Z 05011KT 21/16 A3021 RMK A01 T02100162  RH  074%=      5-min Rain = 0
KNH1 141243Z 05009KT 21/16 A3021 RMK A01 T02110162  RH  074%=      5-min Rain = 0
KNH1 141244Z 05010KT 21/16 A3021 RMK A01 T02110162  RH  074%=      5-min Rain = 0
KNH1 141245Z 05014G19KT 21/16 A3021 RMK A01 T02100162  RH  074%=      5-min Rain = 0
KNH1 141246Z 05012KT 21/16 A3021 RMK A01 T02100161  RH  074%=      5-min Rain = 0
KNH1 141247Z 04012KT 21/16 A3021 RMK A01 T02100161  RH  074%=      5-min Rain = 0
KNH1 141248Z 04013KT 21/16 A3021 RMK A01 T02100160  RH  073%=      5-min Rain = 0
KNH1 141249Z 05014G20KT 21/16 A3021 RMK A01 T02100160  RH  073%=      5-min Rain = 0
KNH1 141250Z 04015G20KT 21/16 A3021 RMK A01 T02100160  RH  073%=      5-min Rain = 0
KNH1 141251Z 05014KT 21/16 A3021 RMK A01 T02100159  RH  073%=      5-min Rain = 0
KNH1 141252Z 05014KT 21/16 A3021 RMK A01 T02090159  RH  073%=      5-min Rain = 0
KNH1 141253Z 05013KT 21/16 A3021 RMK A01 T02090158  RH  073%=      5-min Rain = 0
KNH1 141254Z 05013G18KT 21/16 A3021 RMK A01 T02090158  RH  073%=      5-min Rain = 0
KNH1 141255Z 05013KT 21/16 A3021 RMK A01 T02090158  RH  073%=      5-min Rain = 0
KNH1 141256Z 05012KT 21/16 A3021 RMK A01 T02090158  RH  073%=      5-min Rain = 0
KNH1 141257Z 05015KT 21/16 A3021 RMK A01 T02090158  RH  072%=      5-min Rain = 0
KNH1 141258Z 04014KT 21/16 A3021 RMK A01 T02090157  RH  072%=      5-min Rain = 0
KNH1 141259Z 05013G19KT 21/16 A3021 RMK A01 T02090157  RH  072%=      5-min Rain = 0
KNH1 141300Z 05015G22KT 21/16 A3021 RMK A01 T02090157  RH  072%=      5-min Rain = 0
KNH1 141301Z 05016KT 21/16 A3021 RMK A01 T02090157  RH  072%=      5-min Rain = 0
KNH1 141302Z 05012KT 21/16 A3021 RMK A01 T02090157  RH  072%=      5-min Rain = 0
KNH1 141303Z 05014KT 21/16 A3022 RMK A01 T02090157  RH  072%=      5-min Rain = 0
KNH1 141304Z 06009KT 21/16 A3022 RMK A01 T02100157  RH  072%=      5-min Rain = 0
KNH1 141305Z 05012KT 21/16 A3022 RMK A01 T02090157  RH  072%=      5-min Rain = 0
KNH1 141306Z 05013KT 21/16 A3022 RMK A01 T02100157  RH  072%=      5-min Rain = 0
KNH1 141307Z 05011KT 21/16 A3022 RMK A01 T02100157  RH  072%=      5-min Rain = 0
KNH1 141308Z 04010KT 21/16 A3022 RMK A01 T02100158  RH  072%=      5-min Rain = 0
KNH1 141309Z 05011KT 21/16 A3022 RMK A01 T02100158  RH  072%=      5-min Rain = 0
KNH1 141310Z 04009KT 21/16 A3022 RMK A01 T02100158  RH  072%=      5-min Rain = 0
KNH1 141311Z 04013KT 21/16 A3022 RMK A01 T02110158  RH  071%=      5-min Rain = 0
KNH1 141312Z 04011KT 21/16 A3022 RMK A01 T02110157  RH  071%=      5-min Rain = 0
KNH1 141313Z 04012KT 21/16 A3023 RMK A01 T02110157  RH  071%=      5-min Rain = 0
KNH1 141314Z 04010KT 21/16 A3023 RMK A01 T02110157  RH  071%=      5-min Rain = 0
KNH1 141315Z 04011KT 21/16 A3023 RMK A01 T02110157  RH  071%=      5-min Rain = 0
KNH1 141316Z 04009KT 21/16 A3023 RMK A01 T02110156  RH  071%=      5-min Rain = 0
KNH1 141317Z 04010KT 21/16 A3023 RMK A01 T02120156  RH  071%=      5-min Rain = 0
KNH1 141318Z 04014KT 21/16 A3023 RMK A01 T02120156  RH  070%=      5-min Rain = 0
KNH1 141319Z 04013G18KT 21/16 A3023 RMK A01 T02120156  RH  070%=      5-min Rain = 0
KNH1 141320Z 04012KT 21/16 A3023 RMK A01 T02110156  RH  071%=      5-min Rain = 0
KNH1 141321Z 04010KT 21/16 A3023 RMK A01 T02110156  RH  071%=      5-min Rain = 0
KNH1 141322Z 04012G17KT 21/16 A3023 RMK A01 T02120156  RH  070%=      5-min Rain = 0
KNH1 141323Z 05012G17KT 21/16 A3023 RMK A01 T02120156  RH  070%=      5-min Rain = 0
KNH1 141324Z 05013KT 21/16 A3023 RMK A01 T02110156  RH  071%=      5-min Rain = 0
KNH1 141325Z 05012KT 21/16 A3023 RMK A01 T02100156  RH  071%=      5-min Rain = 0
KNH1 141326Z 05013KT 21/16 A3023 RMK A01 T02100156  RH  071%=      5-min Rain = 0
KNH1 141327Z 03016KT 21/16 A3023 RMK A01 T02100156  RH  071%=      5-min Rain = 0
KNH1 141328Z 04014KT 21/16 A3024 RMK A01 T02090155  RH  071%=      5-min Rain = 0
KNH1 141329Z 05012KT 21/16 A3024 RMK A01 T02100155  RH  071%=      5-min Rain = 0
KNH1 141330Z 05010KT 21/16 A3024 RMK A01 T02100156  RH  071%=      5-min Rain = 0
KNH1 141331Z 05007KT 21/16 A3024 RMK A01 T02110156  RH  071%=      5-min Rain = 0
KNH1 141332Z 04008KT 21/16 A3024 RMK A01 T02110157  RH  071%=      5-min Rain = 0
KNH1 141333Z 04008KT 21/16 A3024 RMK A01 T02120157  RH  071%=      5-min Rain = 0
KNH1 141334Z 05009KT 21/16 A3024 RMK A01 T02120156  RH  070%=      5-min Rain = 0
KNH1 141335Z 05014KT 21/16 A3024 RMK A01 T02120156  RH  070%=      5-min Rain = 0
KNH1 141336Z 04010KT 21/16 A3024 RMK A01 T02120156  RH  071%=      5-min Rain = 0
KNH1 141337Z 04013KT 21/16 A3024 RMK A01 T02120156  RH  071%=      5-min Rain = 0
KNH1 141338Z 06010G15KT 21/16 A3024 RMK A01 T02120156  RH  070%=      5-min Rain = 0
KNH1 141339Z 05013KT 21/16 A3024 RMK A01 T02120156  RH  070%=      5-min Rain = 0
KNH1 141340Z 05013KT 21/16 A3024 RMK A01 T02130156  RH  070%=      5-min Rain = 0
KNH1 141341Z 05012KT 21/16 A3024 RMK A01 T02140156  RH  070%=      5-min Rain = 0
KNH1 141342Z 05012KT 22/16 A3024 RMK A01 T02150157  RH  069%=      5-min Rain = 0
KNH1 141343Z 05011KT 22/16 A3024 RMK A01 T02150156  RH  069%=      5-min Rain = 0
KNH1 141344Z 06013KT 21/16 A3024 RMK A01 T02140156  RH  070%=      5-min Rain = 0
KNH1 141345Z 05013KT 21/16 A3024 RMK A01 T02140156  RH  070%=      5-min Rain = 0
KNH1 141346Z 05010G16KT 21/16 A3025 RMK A01 T02130156  RH  070%=      5-min Rain = 0
KNH1 141347Z 05011KT 21/16 A3025 RMK A01 T02130156  RH  070%=      5-min Rain = 0
KNH1 141348Z 05012KT 21/16 A3025 RMK A01 T02140157  RH  070%=      5-min Rain = 0
KNH1 141349Z 05010KT 21/16 A3025 RMK A01 T02140157  RH  070%=      5-min Rain = 0
KNH1 141350Z 05012KT 22/16 A3025 RMK A01 T02150156  RH  069%=      5-min Rain = 0
KNH1 141351Z 05010KT 22/16 A3025 RMK A01 T02150156  RH  069%=      5-min Rain = 0
KNH1 141352Z 05012KT 22/16 A3025 RMK A01 T02160156  RH  069%=      5-min Rain = 0
KNH1 141353Z 05014KT 22/16 A3025 RMK A01 T02160156  RH  069%=      5-min Rain = 0
KNH1 141354Z 05011KT 22/16 A3025 RMK A01 T02150155  RH  069%=      5-min Rain = 0
KNH1 141355Z 05011G18KT 22/16 A3025 RMK A01 T02170157  RH  069%=      5-min Rain = 0
KNH1 141356Z 05012KT 22/16 A3025 RMK A01 T02180157  RH  068%=      5-min Rain = 0
KNH1 141357Z 05011KT 22/16 A3025 RMK A01 T02180157  RH  068%=      5-min Rain = 0
KNH1 141358Z 04009G14KT 22/16 A3025 RMK A01 T02180157  RH  069%=      5-min Rain = 0
KNH1 141359Z 05010G17KT 22/16 A3026 RMK A01 T02180158  RH  068%=      5-min Rain = 0
KNH1 141400Z 04014KT 22/16 A3025 RMK A01 T02190157  RH  068%=      5-min Rain = 0
KNH1 141401Z 05013KT 22/16 A3025 RMK A01 T02180157  RH  068%=      5-min Rain = 0
KNH1 141402Z 05012KT 22/16 A3026 RMK A01 T02180157  RH  068%=      5-min Rain = 0
KNH1 141403Z 05012G17KT 22/16 A3026 RMK A01 T02180157  RH  068%=      5-min Rain = 0
KNH1 141404Z 05011KT 22/16 A3026 RMK A01 T02180157  RH  068%=      5-min Rain = 0
KNH1 141405Z 06010KT 22/16 A3026 RMK A01 T02190157  RH  068%=      5-min Rain = 0
KNH1 141406Z 05012KT 22/16 A3026 RMK A01 T02190157  RH  068%=      5-min Rain = 0
KNH1 141407Z 05011G16KT 22/16 A3026 RMK A01 T02200158  RH  068%=      5-min Rain = 0
KNH1 141408Z 04010KT 22/16 A3026 RMK A01 T02200158  RH  068%=      5-min Rain = 0
KNH1 141409Z 05010KT 22/16 A3026 RMK A01 T02220158  RH  067%=      5-min Rain = 0
KNH1 141410Z 04012KT 22/16 A3026 RMK A01 T02230158  RH  067%=      5-min Rain = 0
KNH1 141411Z 04009KT 22/16 A3026 RMK A01 T02230158  RH  067%=      5-min Rain = 0
KNH1 141412Z 04010KT 22/16 A3026 RMK A01 T02230158  RH  067%=      5-min Rain = 0
KNH1 141413Z 04010KT 22/16 A3026 RMK A01 T02240159  RH  066%=      5-min Rain = 0
KNH1 141414Z 05009KT 23/16 A3026 RMK A01 T02250159  RH  066%=      5-min Rain = 0
KNH1 141415Z 04010KT 23/16 A3026 RMK A01 T02260159  RH  066%=      5-min Rain = 0
KNH1 141416Z 05013KT 23/16 A3026 RMK A01 T02270159  RH  065%=      5-min Rain = 0
KNH1 141417Z 06011KT 23/16 A3026 RMK A01 T02260159  RH  065%=      5-min Rain = 0
KNH1 141418Z 06011KT 23/16 A3026 RMK A01 T02270159  RH  065%=      5-min Rain = 0
KNH1 141419Z 05008KT 23/16 A3026 RMK A01 T02270159  RH  065%=      5-min Rain = 0
KNH1 141420Z 05010KT 23/16 A3026 RMK A01 T02290160  RH  065%=      5-min Rain = 0
KNH1 141421Z 05010KT 23/16 A3026 RMK A01 T02300160  RH  064%=      5-min Rain = 0
KNH1 141422Z 04010KT 23/16 A3026 RMK A01 T02320159  RH  063%=      5-min Rain = 0
KNH1 141423Z 04010KT 23/16 A3026 RMK A01 T02340160  RH  063%=      5-min Rain = 0
KNH1 141424Z 05010KT 24/16 A3026 RMK A01 T02360161  RH  063%=      5-min Rain = 0
KNH1 141425Z 04012KT 24/16 A3026 RMK A01 T02380160  RH  062%=      5-min Rain = 0
KNH1 141426Z 05012KT 24/16 A3026 RMK A01 T02360160  RH  062%=      5-min Rain = 0
KNH1 141427Z 04011KT 23/16 A3026 RMK A01 T02340159  RH  063%=      5-min Rain = 0
KNH1 141428Z 04010KT 24/16 A3026 RMK A01 T02350160  RH  063%=      5-min Rain = 0
KNH1 141429Z 04010G15KT 24/16 A3026 RMK A01 T02360160  RH  062%=      5-min Rain = 0
KNH1 141430Z 05010KT 24/16 A3026 RMK A01 T02360160  RH  062%=      5-min Rain = 0
KNH1 141431Z 04013KT 24/16 A3026 RMK A01 T02360160  RH  062%=      5-min Rain = 0
KNH1 141432Z 05012KT 24/16 A3026 RMK A01 T02360160  RH  063%=      5-min Rain = 0
KNH1 141433Z 04013KT 24/16 A3026 RMK A01 T02360160  RH  063%=      5-min Rain = 0
KNH1 141434Z 05014KT 24/16 A3026 RMK A01 T02350160  RH  063%=      5-min Rain = 0
KNH1 141435Z 05010KT 24/16 A3026 RMK A01 T02350160  RH  063%=      5-min Rain = 0
KNH1 141436Z 04010KT 24/16 A3026 RMK A01 T02350160  RH  063%=      5-min Rain = 0
KNH1 141437Z 04012KT 24/16 A3026 RMK A01 T02360161  RH  063%=      5-min Rain = 0
KNH1 141438Z 05013KT 24/16 A3025 RMK A01 T02360160  RH  063%=      5-min Rain = 0
KNH1 141439Z 05012KT 24/16 A3025 RMK A01 T02350161  RH  063%=      5-min Rain = 0
KNH1 141440Z 05011KT 24/16 A3025 RMK A01 T02350161  RH  063%=      5-min Rain = 0
KNH1 141441Z 04011KT 24/16 A3025 RMK A01 T02360161  RH  063%=      5-min Rain = 0
KNH1 141442Z 04012KT 24/16 A3025 RMK A01 T02370161  RH  062%=      5-min Rain = 0
KNH1 141443Z 04011KT 24/16 A3026 RMK A01 T02380161  RH  062%=      5-min Rain = 0
KNH1 141444Z 04011KT 24/16 A3025 RMK A01 T02380161  RH  062%=      5-min Rain = 0
KNH1 141445Z 04009KT 24/16 A3025 RMK A01 T02390161  RH  062%=      5-min Rain = 0
KNH1 141446Z 05010KT 24/16 A3025 RMK A01 T02390161  RH  062%=      5-min Rain = 0
KNH1 141447Z 04012KT 24/16 A3025 RMK A01 T02390161  RH  062%=      5-min Rain = 0
KNH1 141448Z 04011KT 24/16 A3025 RMK A01 T02400162  RH  062%=      5-min Rain = 0
KNH1 141449Z 04012KT 24/16 A3025 RMK A01 T02400162  RH  062%=      5-min Rain = 0
KNH1 141450Z 04013KT 24/16 A3025 RMK A01 T02410161  RH  061%=      5-min Rain = 0
KNH1 141451Z 04012KT 24/16 A3025 RMK A01 T02400161  RH  061%=      5-min Rain = 0
KNH1 141452Z 04011KT 24/16 A3025 RMK A01 T02400162  RH  062%=      5-min Rain = 0
KNH1 141453Z 04010KT 24/16 A3025 RMK A01 T02420162  RH  061%=      5-min Rain = 0
KNH1 141454Z 05010KT 24/16 A3025 RMK A01 T02430162  RH  061%=      5-min Rain = 0
KNH1 141455Z 05010KT 24/16 A3025 RMK A01 T02430163  RH  061%=      5-min Rain = 0
KNH1 141456Z 06008KT 25/16 A3025 RMK A01 T02450163  RH  060%=      5-min Rain = 0
KNH1 141457Z 06009KT 25/16 A3025 RMK A01 T02450164  RH  060%=      5-min Rain = 0
KNH1 141458Z 06008KT 25/17 A3025 RMK A01 T02470165  RH  060%=      5-min Rain = 0
KNH1 141459Z 06009KT 25/17 A3025 RMK A01 T02500165  RH  059%=      5-min Rain = 0
KNH1 141500Z 06009G14KT 25/17 A3025 RMK A01 T02510165  RH  059%=      5-min Rain = 0
KNH1 141501Z 06010KT 25/16 A3025 RMK A01 T02510164  RH  059%=      5-min Rain = 0
KNH1 141502Z 05007KT 25/17 A3025 RMK A01 T02510165  RH  059%=      5-min Rain = 0
KNH1 141503Z 04010KT 25/17 A3025 RMK A01 T02520165  RH  059%=      5-min Rain = 0
KNH1 141504Z 05010KT 25/17 A3025 RMK A01 T02520165  RH  058%=      5-min Rain = 0
KNH1 141505Z 05012G18KT 25/17 A3025 RMK A01 T02520165  RH  058%=      5-min Rain = 0
KNH1 141506Z 05010KT 25/17 A3025 RMK A01 T02530165  RH  058%=      5-min Rain = 0
KNH1 141507Z 05011KT 25/17 A3025 RMK A01 T02530165  RH  058%=      5-min Rain = 0
KNH1 141508Z 05010G15KT 25/17 A3025 RMK A01 T02530165  RH  058%=      5-min Rain = 0
KNH1 141509Z 04010KT 25/17 A3025 RMK A01 T02540166  RH  058%=      5-min Rain = 0
KNH1 141510Z 04009G14KT 26/17 A3025 RMK A01 T02550166  RH  058%=      5-min Rain = 0
KNH1 141511Z 05013KT 26/17 A3025 RMK A01 T02560165  RH  057%=      5-min Rain = 0
KNH1 141512Z 04010KT 26/17 A3025 RMK A01 T02550165  RH  058%=      5-min Rain = 0
KNH1 141513Z 05010KT 26/17 A3025 RMK A01 T02560167  RH  058%=      5-min Rain = 0
KNH1 141514Z 04011KT 26/17 A3026 RMK A01 T02570167  RH  057%=      5-min Rain = 0
KNH1 141515Z 04013KT 26/17 A3026 RMK A01 T02590166  RH  057%=      5-min Rain = 0
KNH1 141516Z 03012G17KT 26/17 A3026 RMK A01 T02590166  RH  057%=      5-min Rain = 0
KNH1 141517Z 04014KT 26/17 A3025 RMK A01 T02600166  RH  056%=      5-min Rain = 0
KNH1 141518Z 05011KT 26/17 A3025 RMK A01 T02600166  RH  056%=      5-min Rain = 0
KNH1 141519Z 04011KT 26/17 A3025 RMK A01 T02600166  RH  056%=      5-min Rain = 0
KNH1 141520Z 03012KT 26/17 A3025 RMK A01 T02600167  RH  056%=      5-min Rain = 0
KNH1 141521Z 04012G17KT 26/17 A3025 RMK A01 T02620166  RH  056%=      5-min Rain = 0
KNH1 141522Z 05012KT 26/17 A3025 RMK A01 T02640166  RH  055%=      5-min Rain = 0
KNH1 141523Z 06013KT 26/17 A3025 RMK A01 T02630165  RH  055%=      5-min Rain = 0
KNH1 141524Z 04010G15KT 26/17 A3025 RMK A01 T02610166  RH  056%=      5-min Rain = 0
KNH1 141525Z 03009G14KT 26/17 A3025 RMK A01 T02620168  RH  056%=      5-min Rain = 0
KNH1 141526Z 02012KT 27/17 A3025 RMK A01 T02660168  RH  055%=      5-min Rain = 0
KNH1 141527Z 02014KT 27/17 A3025 RMK A01 T02660166  RH  054%=      5-min Rain = 0
KNH1 141528Z 04013KT 26/17 A3025 RMK A01 T02640166  RH  055%=      5-min Rain = 0
KNH1 141529Z 04011G16KT 26/17 A3025 RMK A01 T02630166  RH  055%=      5-min Rain = 0
KNH1 141530Z 03013KT 26/17 A3025 RMK A01 T02630166  RH  055%=      5-min Rain = 0
KNH1 141531Z 03011KT 26/17 A3025 RMK A01 T02630166  RH  055%=      5-min Rain = 0
KNH1 141532Z 04010KT 26/17 A3025 RMK A01 T02620166  RH  056%=      5-min Rain = 0
KNH1 141533Z 04010KT 26/17 A3025 RMK A01 T02640166  RH  055%=      5-min Rain = 0
KNH1 141534Z 03014KT 26/17 A3025 RMK A01 T02640166  RH  055%=      5-min Rain = 0
KNH1 141535Z 03013KT 26/17 A3025 RMK A01 T02620165  RH  055%=      5-min Rain = 0
KNH1 141536Z 04014KT 26/17 A3025 RMK A01 T02620166  RH  055%=      5-min Rain = 0
KNH1 141537Z 04013KT 26/17 A3025 RMK A01 T02620166  RH  055%=      5-min Rain = 0
KNH1 141538Z 04010KT 26/17 A3025 RMK A01 T02620166  RH  055%=      5-min Rain = 0
KNH1 141539Z 04012KT 26/17 A3025 RMK A01 T02630166  RH  055%=      5-min Rain = 0
KNH1 141540Z 02012KT 27/17 A3025 RMK A01 T02650166  RH  055%=      5-min Rain = 0
KNH1 141541Z 03014KT 27/17 A3025 RMK A01 T02660166  RH  054%=      5-min Rain = 0
KNH1 141542Z 04013G18KT 27/17 A3025 RMK A01 T02650166  RH  055%=      5-min Rain = 0
KNH1 141543Z 03015KT 27/17 A3025 RMK A01 T02650165  RH  054%=      5-min Rain = 0
KNH1 141544Z 04012KT 26/17 A3024 RMK A01 T02640166  RH  055%=      5-min Rain = 0
KNH1 141545Z 05014KT 26/17 A3024 RMK A01 T02630165  RH  055%=      5-min Rain = 0
KNH1 141546Z 04014KT 26/17 A3025 RMK A01 T02620165  RH  055%=      5-min Rain = 0
KNH1 141547Z 03011KT 26/17 A3025 RMK A01 T02630165  RH  055%=      5-min Rain = 0
KNH1 141548Z 03012KT 26/17 A3025 RMK A01 T02640166  RH  055%=      5-min Rain = 0
KNH1 141549Z 05011G16KT 27/17 A3025 RMK A01 T02660167  RH  055%=      5-min Rain = 0
KNH1 141550Z 05012KT 27/17 A3025 RMK A01 T02670166  RH  054%=      5-min Rain = 0
KNH1 141551Z 05012KT 27/17 A3025 RMK A01 T02660167  RH  054%=      5-min Rain = 0
KNH1 141552Z 05011KT 27/17 A3025 RMK A01 T02660166  RH  054%=      5-min Rain = 0
KNH1 141553Z 05011KT 27/17 A3025 RMK A01 T02660167  RH  054%=      5-min Rain = 0
KNH1 141554Z 05012KT 27/17 A3025 RMK A01 T02680167  RH  054%=      5-min Rain = 0
KNH1 141555Z 04010KT 27/17 A3025 RMK A01 T02680167  RH  054%=      5-min Rain = 0
KNH1 141556Z 04011G17KT 27/17 A3025 RMK A01 T02690167  RH  054%=      5-min Rain = 0
KNH1 141557Z 05010KT 27/17 A3025 RMK A01 T02690167  RH  054%=      5-min Rain = 0
KNH1 141558Z 05011KT 27/17 A3025 RMK A01 T02690168  RH  054%=      5-min Rain = 0
KNH1 141559Z 03011KT 27/17 A3025 RMK A01 T02680167  RH  054%=      5-min Rain = 0
KNH1 141600Z 04010KT 27/17 A3025 RMK A01 T02690167  RH  054%=      5-min Rain = 0
KNH1 141601Z 03012KT 27/17 A3025 RMK A01 T02700168  RH  054%=      5-min Rain = 0
KNH1 141602Z 05010KT 27/17 A3025 RMK A01 T02730167  RH  052%=      5-min Rain = 0
KNH1 141603Z 04008KT 28/17 A3024 RMK A01 T02760168  RH  052%=      5-min Rain = 0
KNH1 141604Z 05013KT 28/17 A3024 RMK A01 T02790167  RH  050%=      5-min Rain = 0
KNH1 141605Z 05011KT 28/17 A3024 RMK A01 T02780165  RH  050%=      5-min Rain = 0
KNH1 141606Z 05009G14KT 28/17 A3024 RMK A01 T02770166  RH  051%=      5-min Rain = 0
KNH1 141607Z 03011KT 28/17 A3024 RMK A01 T02760166  RH  051%=      5-min Rain = 0
KNH1 141608Z 04011KT 28/17 A3024 RMK A01 T02760166  RH  051%=      5-min Rain = 0
KNH1 141609Z 05010KT 28/17 A3024 RMK A01 T02760167  RH  051%=      5-min Rain = 0
KNH1 141610Z 05012KT 28/17 A3024 RMK A01 T02760166  RH  051%=      5-min Rain = 0
KNH1 141611Z 05009KT 28/17 A3024 RMK A01 T02750166  RH  051%=      5-min Rain = 0
KNH1 141612Z 05009G14KT 28/17 A3025 RMK A01 T02750166  RH  051%=      5-min Rain = 0
KNH1 141613Z 04009KT 28/17 A3024 RMK A01 T02770165  RH  051%=      5-min Rain = 0
KNH1 141614Z 03010KT 28/17 A3025 RMK A01 T02790166  RH  050%=      5-min Rain = 0
KNH1 141615Z 05009KT 28/17 A3024 RMK A01 T02770167  RH  051%=      5-min Rain = 0
KNH1 141616Z 04009KT 28/17 A3025 RMK A01 T02770167  RH  051%=      5-min Rain = 0
KNH1 141617Z 03010KT 28/17 A3025 RMK A01 T02780167  RH  051%=      5-min Rain = 0
KNH1 141618Z 04011KT 28/17 A3025 RMK A01 T02800166  RH  050%=      5-min Rain = 0
KNH1 141619Z 04008KT 28/17 A3025 RMK A01 T02800167  RH  050%=      5-min Rain = 0
KNH1 141620Z 04008KT 28/17 A3025 RMK A01 T02800168  RH  051%=      5-min Rain = 0
KNH1 141621Z 03011KT 28/17 A3025 RMK A01 T02810167  RH  050%=      5-min Rain = 0
KNH1 141622Z 03013KT 28/17 A3024 RMK A01 T02800166  RH  050%=      5-min Rain = 0
KNH1 141623Z 04011KT 28/17 A3024 RMK A01 T02780166  RH  050%=      5-min Rain = 0
KNH1 141624Z 04010KT 28/16 A3024 RMK A01 T02780164  RH  050%=      5-min Rain = 0
KNH1 141625Z 04010KT 28/16 A3024 RMK A01 T02770164  RH  050%=      5-min Rain = 0
KNH1 141626Z 04011KT 28/16 A3024 RMK A01 T02780164  RH  050%=      5-min Rain = 0
KNH1 141627Z 03010KT 28/17 A3024 RMK A01 T02800165  RH  050%=      5-min Rain = 0
KNH1 141628Z 03013KT 28/16 A3024 RMK A01 T02810164  RH  049%=      5-min Rain = 0
KNH1 141629Z 03014KT 28/17 A3024 RMK A01 T02790165  RH  050%=      5-min Rain = 0
KNH1 141630Z 03010KT 28/17 A3024 RMK A01 T02770165  RH  050%=      5-min Rain = 0
KNH1 141631Z 05010KT 28/17 A3024 RMK A01 T02780165  RH  050%=      5-min Rain = 0
KNH1 141632Z 05012KT 28/17 A3024 RMK A01 T02790166  RH  050%=      5-min Rain = 0
KNH1 141633Z 04012KT 28/17 A3024 RMK A01 T02800166  RH  050%=      5-min Rain = 0
KNH1 141634Z 04010KT 28/17 A3024 RMK A01 T02790166  RH  050%=      5-min Rain = 0
KNH1 141635Z 04009KT 28/17 A3024 RMK A01 T02780166  RH  050%=      5-min Rain = 0
KNH1 141636Z 04011KT 28/17 A3024 RMK A01 T02780165  RH  050%=      5-min Rain = 0
KNH1 141637Z 05011KT 28/17 A3024 RMK A01 T02800166  RH  050%=      5-min Rain = 0
KNH1 141638Z 04011KT 28/17 A3024 RMK A01 T02830166  RH  049%=      5-min Rain = 0
KNH1 141639Z 05014KT 28/16 A3024 RMK A01 T02840163  RH  048%=      5-min Rain = 0
KNH1 141640Z 05013KT 28/16 A3023 RMK A01 T02830161  RH  048%=      5-min Rain = 0
KNH1 141641Z 05013KT 28/16 A3023 RMK A01 T02830159  RH  047%=      5-min Rain = 0
KNH1 141642Z 04010KT 28/16 A3023 RMK A01 T02820161  RH  048%=      5-min Rain = 0
KNH1 141643Z 05010KT 28/16 A3023 RMK A01 T02820163  RH  048%=      5-min Rain = 0
KNH1 141644Z 05012KT 28/16 A3023 RMK A01 T02840163  RH  048%=      5-min Rain = 0
KNH1 141645Z 04010KT 28/17 A3023 RMK A01 T02830165  RH  049%=      5-min Rain = 0
KNH1 141646Z 07009KT 29/17 A3023 RMK A01 T02850167  RH  049%=      5-min Rain = 0
KNH1 141647Z 05007KT 29/17 A3023 RMK A01 T02860168  RH  049%=      5-min Rain = 0
KNH1 141648Z 06008KT 29/17 A3023 RMK A01 T02880169  RH  049%=      5-min Rain = 0
KNH1 141649Z 05010KT 29/17 A3023 RMK A01 T02910167  RH  047%=      5-min Rain = 0
KNH1 141650Z 07009G15KT 29/17 A3023 RMK A01 T02890165  RH  047%=      5-min Rain = 0
KNH1 141651Z 07012KT 29/16 A3023 RMK A01 T02880162  RH  046%=      5-min Rain = 0
KNH1 141652Z 06010KT 29/16 A3023 RMK A01 T02890164  RH  047%=      5-min Rain = 0
KNH1 141653Z 06013G18KT 29/16 A3022 RMK A01 T02900160  RH  046%=      5-min Rain = 0
KNH1 141654Z 06009KT 29/16 A3022 RMK A01 T02900161  RH  046%=      5-min Rain = 0
KNH1 141655Z 06010KT 29/16 A3022 RMK A01 T02930160  RH  045%=      5-min Rain = 0
KNH1 141656Z 05012KT 29/16 A3022 RMK A01 T02930162  RH  045%=      5-min Rain = 0
KNH1 141657Z 06012KT 29/16 A3022 RMK A01 T02930164  RH  046%=      5-min Rain = 0
KNH1 141658Z 06009KT 29/16 A3022 RMK A01 T02920161  RH  045%=      5-min Rain = 0
KNH1 141659Z 08008KT 29/16 A3022 RMK A01 T02890162  RH  046%=      5-min Rain = 0
KNH1 141700Z 07010KT 29/16 A3022 RMK A01 T02920162  RH  046%=      5-min Rain = 0
KNH1 141701Z 07011KT 30/16 A3022 RMK A01 T02950162  RH  045%=      5-min Rain = 0
KNH1 141702Z 07013KT 30/16 A3022 RMK A01 T02960157  RH  043%=      5-min Rain = 0
KNH1 141703Z 06012G19KT 30/15 A3022 RMK A01 T02950154  RH  042%=      5-min Rain = 0
KNH1 141704Z 06013KT 30/16 A3021 RMK A01 T02950156  RH  043%=      5-min Rain = 0
KNH1 141705Z 06012KT 29/16 A3022 RMK A01 T02940156  RH  043%=      5-min Rain = 0
KNH1 141706Z 08010KT 29/16 A3021 RMK A01 T02930159  RH  044%=      5-min Rain = 0
KNH1 141707Z 07010KT 30/16 A3021 RMK A01 T02950161  RH  044%=      5-min Rain = 0
KNH1 141708Z 07010KT 30/16 A3021 RMK A01 T02980160  RH  043%=      5-min Rain = 0
KNH1 141709Z 06009KT 30/16 A3021 RMK A01 T02970159  RH  043%=      5-min Rain = 0
KNH1 141710Z 07010KT 30/16 A3021 RMK A01 T02960160  RH  044%=      5-min Rain = 0
KNH1 141711Z 08010KT 30/16 A3021 RMK A01 T02950163  RH  045%=      5-min Rain = 0
KNH1 141712Z 07009KT 30/16 A3021 RMK A01 T02990164  RH  044%=      5-min Rain = 0
KNH1 141713Z 07009KT 30/16 A3021 RMK A01 T03030164  RH  043%=      5-min Rain = 0
KNH1 141714Z 08014KT 31/16 A3021 RMK A01 T03060161  RH  041%=      5-min Rain = 0
KNH1 141715Z 08013KT 30/16 A3021 RMK A01 T03040155  RH  041%=      5-min Rain = 0
KNH1 141716Z 07010KT 30/16 A3021 RMK A01 T02980157  RH  042%=      5-min Rain = 0
KNH1 141717Z 07008KT 30/16 A3021 RMK A01 T02980159  RH  043%=      5-min Rain = 0
KNH1 141718Z 08010KT 30/16 A3021 RMK A01 T02990161  RH  043%=      5-min Rain = 0
KNH1 141719Z 09011KT 30/16 A3021 RMK A01 T03000161  RH  043%=      5-min Rain = 0
KNH1 141720Z 09010G15KT 30/16 A3021 RMK A01 T02990159  RH  043%=      5-min Rain = 0
KNH1 141721Z 09012KT 30/15 A3021 RMK A01 T02980154  RH  042%=      5-min Rain = 0
KNH1 141722Z 08012KT 30/15 A302 RMK A01 T02980151  RH  041%=      5-min Rain = 0
KNH1 141723Z 07013KT 30/15 A302 RMK A01 T03000149  RH  040%=      5-min Rain = 0
KNH1 141724Z 08011G16KT 30/15 A302 RMK A01 T03010149  RH  040%=      5-min Rain = 0
KNH1 141725Z 07013KT 30/15 A302 RMK A01 T03020149  RH  039%=      5-min Rain = 0
KNH1 141726Z 09012KT 30/15 A302 RMK A01 T03020151  RH  040%=      5-min Rain = 0
KNH1 141727Z 10012KT 30/15 A302 RMK A01 T03020153  RH  040%=      5-min Rain = 0
KNH1 141728Z 10011KT 30/15 A302 RMK A01 T03020151  RH  040%=      5-min Rain = 0
KNH1 141729Z 10011KT 30/15 A302 RMK A01 T03030153  RH  040%=      5-min Rain = 0
KNH1 141730Z 11011G16KT 30/15 A302 RMK A01 T03030154  RH  040%=      5-min Rain = 0
KNH1 141731Z 08015KT 31/15 A302 RMK A01 T03050152  RH  039%=      5-min Rain = 0
KNH1 141732Z 08012G18KT 31/15 A302 RMK A01 T03070151  RH  039%=      5-min Rain = 0
KNH1 141733Z 08013KT 31/15 A302 RMK A01 T03060154  RH  040%=      5-min Rain = 0
KNH1 141734Z 08009KT 30/16 A302 RMK A01 T03040156  RH  041%=      5-min Rain = 0
KNH1 141735Z 09011KT 31/16 A302 RMK A01 T03050156  RH  041%=      5-min Rain = 0
KNH1 141736Z 08011KT 31/16 A302 RMK A01 T03070157  RH  040%=      5-min Rain = 0
KNH1 141737Z 07009KT 31/15 A302 RMK A01 T03070154  RH  040%=      5-min Rain = 0
KNH1 141738Z 08013KT 31/15 A302 RMK A01 T03060152  RH  039%=      5-min Rain = 0
KNH1 141739Z 08012G17KT 31/15 A302 RMK A01 T03060149  RH  039%=      5-min Rain = 0
KNH1 141740Z 08011G16KT 31/15 A302 RMK A01 T03060149  RH  039%=      5-min Rain = 0
KNH1 141741Z 08013KT 31/15 A302 RMK A01 T03060153  RH  040%=      5-min Rain = 0
KNH1 141742Z 09010KT 31/15 A302 RMK A01 T03080152  RH  039%=      5-min Rain = 0
KNH1 141743Z 08008KT 31/15 A302 RMK A01 T03080152  RH  039%=      5-min Rain = 0
KNH1 141744Z 08009KT 31/15 A302 RMK A01 T03090153  RH  039%=      5-min Rain = 0
KNH1 141745Z 09011KT 31/16 A302 RMK A01 T03120156  RH  039%=      5-min Rain = 0
KNH1 141746Z 08011KT 31/15 A302 RMK A01 T03120154  RH  038%=      5-min Rain = 0
KNH1 141747Z 08011KT 31/15 A302 RMK A01 T03080153  RH  039%=      5-min Rain = 0
KNH1 141748Z 08011KT 31/15 A302 RMK A01 T03070153  RH  039%=      5-min Rain = 0
KNH1 141749Z 09011KT 31/16 A3019 RMK A01 T03100157  RH  040%=      5-min Rain = 0
KNH1 141750Z 11011G16KT 31/16 A3019 RMK A01 T03110160  RH  040%=      5-min Rain = 0
KNH1 141751Z 11014G19KT 31/16 A3019 RMK A01 T03120163  RH  041%=      5-min Rain = 0
KNH1 141752Z 11011KT 31/16 A3019 RMK A01 T03120162  RH  040%=      5-min Rain = 0
KNH1 141753Z 11009KT 31/16 A3019 RMK A01 T03120159  RH  040%=      5-min Rain = 0
KNH1 141754Z 11010KT 31/16 A3019 RMK A01 T03120156  RH  039%=      5-min Rain = 0
KNH1 141755Z 11011G17KT 32/15 A3019 RMK A01 T03150153  RH  038%=      5-min Rain = 0
KNH1 141756Z 10011G16KT 32/15 A3019 RMK A01 T03190152  RH  036%=      5-min Rain = 0
KNH1 141757Z 10012KT 32/15 A3019 RMK A01 T03200151  RH  036%=      5-min Rain = 0
KNH1 141758Z 10010G15KT 32/15 A3019 RMK A01 T03200147  RH  035%=      5-min Rain = 0
KNH1 141759Z 10010KT 32/15 A3019 RMK A01 T03180145  RH  035%=      5-min Rain = 0
KNH1 141800Z 08014KT 32/14 A3019 RMK A01 T03190137  RH  033%=      5-min Rain = 0
KNH1 141801Z 08014KT 32/13 A3019 RMK A01 T03210134  RH  032%=      5-min Rain = 0
KNH1 141802Z 07010G15KT 32/14 A3019 RMK A01 T03190135  RH  033%=      5-min Rain = 0
KNH1 141803Z 07012KT 32/14 A3019 RMK A01 T03180135  RH  033%=      5-min Rain = 0
KNH1 141804Z 09011KT 32/14 A3019 RMK A01 T03190136  RH  033%=      5-min Rain = 0
KNH1 141805Z 09011KT 32/14 A3019 RMK A01 T03190137  RH  033%=      5-min Rain = 0
KNH1 141806Z 09011KT 32/14 A3019 RMK A01 T03170140  RH  034%=      5-min Rain = 0
KNH1 141807Z 09011KT 32/14 A3019 RMK A01 T03160143  RH  035%=      5-min Rain = 0
KNH1 141808Z 09014KT 32/15 A3019 RMK A01 T03190146  RH  035%=      5-min Rain = 0
KNH1 141809Z 10013KT 32/15 A3019 RMK A01 T03200145  RH  035%=      5-min Rain = 0
KNH1 141810Z 09012KT 32/14 A3019 RMK A01 T03200144  RH  034%=      5-min Rain = 0
KNH1 141811Z 08011KT 32/15 A3019 RMK A01 T03200145  RH  035%=      5-min Rain = 0
KNH1 141812Z 09006KT 32/15 A3019 RMK A01 T03190150  RH  036%=      5-min Rain = 0
KNH1 141813Z 08013KT 32/15 A3019 RMK A01 T03230152  RH  036%=      5-min Rain = 0
KNH1 141814Z 09009KT 32/15 A3019 RMK A01 T03220150  RH  035%=      5-min Rain = 0
KNH1 141815Z 09010KT 32/15 A3019 RMK A01 T03180150  RH  036%=      5-min Rain = 0
KNH1 141816Z 09013G18KT 32/15 A3019 RMK A01 T03210147  RH  035%=      5-min Rain = 0
KNH1 141817Z 10010KT 32/14 A3019 RMK A01 T03200144  RH  034%=      5-min Rain = 0
KNH1 141818Z 09014G20KT 32/14 A3019 RMK A01 T03180142  RH  034%=      5-min Rain = 0
KNH1 141819Z 08016KT 32/13 A3019 RMK A01 T03200133  RH  032%=      5-min Rain = 0
KNH1 141820Z 09013KT 32/13 A3019 RMK A01 T03210130  RH  031%=      5-min Rain = 0
KNH1 141821Z 09009KT 32/13 A3019 RMK A01 T03220131  RH  031%=      5-min Rain = 0
KNH1 141822Z 08011KT 32/13 A3019 RMK A01 T03220133  RH  032%=      5-min Rain = 0
KNH1 141823Z 09011G17KT 32/14 A3019 RMK A01 T03220136  RH  032%=      5-min Rain = 0
KNH1 141824Z 08016KT 32/14 A3019 RMK A01 T03220136  RH  032%=      5-min Rain = 0
KNH1 141825Z 08013KT 32/14 A3018 RMK A01 T03210141  RH  034%=      5-min Rain = 0
KNH1 141826Z 08010KT 32/14 A3018 RMK A01 T03210143  RH  034%=      5-min Rain = 0
KNH1 141827Z 08011G18KT 33/14 A3018 RMK A01 T03250143  RH  033%=      5-min Rain = 0
KNH1 141828Z 08012KT 33/13 A3018 RMK A01 T03280131  RH  030%=      5-min Rain = 0
KNH1 141829Z 08012KT 33/14 A3018 RMK A01 T03270135  RH  031%=      5-min Rain = 0
KNH1 141830Z 09013KT 33/14 A3018 RMK A01 T03250141  RH  033%=      5-min Rain = 0
KNH1 141831Z 10009KT 32/14 A3018 RMK A01 T03240139  RH  033%=      5-min Rain = 0
KNH1 141832Z 10010G16KT 33/14 A3018 RMK A01 T03250142  RH  033%=      5-min Rain = 0
KNH1 141833Z 10011KT 33/14 A3018 RMK A01 T03280143  RH  033%=      5-min Rain = 0
KNH1 141834Z 10012KT 33/14 A3018 RMK A01 T03290144  RH  033%=      5-min Rain = 0
KNH1 141835Z 09011KT 33/15 A3018 RMK A01 T03270146  RH  034%=      5-min Rain = 0
KNH1 141836Z 10010KT 33/15 A3018 RMK A01 T03260147  RH  034%=      5-min Rain = 0
KNH1 141837Z 10007KT 33/15 A3018 RMK A01 T03260148  RH  034%=      5-min Rain = 0
KNH1 141838Z 11009KT 33/15 A3018 RMK A01 T03270147  RH  034%=      5-min Rain = 0
KNH1 141839Z 11009KT 33/14 A3018 RMK A01 T03300142  RH  032%=      5-min Rain = 0
KNH1 141840Z 11012G19KT 33/14 A3018 RMK A01 T03320139  RH  031%=      5-min Rain = 0
KNH1 141841Z 10013KT 34/14 A3018 RMK A01 T03370137  RH  030%=      5-min Rain = 0
KNH1 141842Z 10014KT 34/14 A3018 RMK A01 T03360138  RH  030%=      5-min Rain = 0
KNH1 141843Z 11010KT 33/14 A3018 RMK A01 T03320140  RH  031%=      5-min Rain = 0
KNH1 141844Z 09009KT 33/14 A3018 RMK A01 T03300139  RH  032%=      5-min Rain = 0
KNH1 141845Z 11006KT 33/14 A3018 RMK A01 T03290142  RH  032%=      5-min Rain = 0
KNH1 141846Z 09006KT 33/14 A3018 RMK A01 T03290141  RH  032%=      5-min Rain = 0
KNH1 141847Z 08009G14KT 33/14 A3018 RMK A01 T03300141  RH  032%=      5-min Rain = 0
KNH1 141848Z 09012KT 33/14 A3018 RMK A01 T03320139  RH  031%=      5-min Rain = 0
KNH1 141849Z 09011G16KT 33/13 A3018 RMK A01 T03310133  RH  030%=      5-min Rain = 0
KNH1 141850Z 09011KT 33/13 A3018 RMK A01 T03300134  RH  031%=      5-min Rain = 0
KNH1 141851Z 11010KT 33/14 A3018 RMK A01 T03310139  RH  031%=      5-min Rain = 0
KNH1 141852Z 10011KT 33/14 A3018 RMK A01 T03320142  RH  032%=      5-min Rain = 0
KNH1 141853Z 11012KT 33/15 A3018 RMK A01 T03330146  RH  032%=      5-min Rain = 0
KNH1 141854Z 12009KT 33/14 A3018 RMK A01 T03340144  RH  032%=      5-min Rain = 0
KNH1 141855Z 12009KT 34/15 A3018 RMK A01 T03350145  RH  032%=      5-min Rain = 0
KNH1 141856Z 12007G12KT 34/15 A3018 RMK A01 T03360145  RH  032%=      5-min Rain = 0
KNH1 141857Z 10010KT 34/15 A3018 RMK A01 T03350147  RH  032%=      5-min Rain = 0
KNH1 141858Z 08010KT 34/14 A3018 RMK A01 T03360140  RH  031%=      5-min Rain = 0
KNH1 141859Z 09011KT 34/14 A3018 RMK A01 T03350136  RH  030%=      5-min Rain = 0
KNH1 141900Z 09010KT 34/13 A3018 RMK A01 T03360134  RH  029%=      5-min Rain = 0
KNH1 141901Z 10012KT 34/13 A3018 RMK A01 T03370131  RH  029%=      5-min Rain = 0
KNH1 141902Z 09010KT 34/13 A3018 RMK A01 T03360130  RH  029%=      5-min Rain = 0
KNH1 141903Z 09013G18KT 34/13 A3018 RMK A01 T03350129  RH  029%=      5-min Rain = 0
KNH1 141904Z 08014KT 34/13 A3018 RMK A01 T03350125  RH  028%=      5-min Rain = 0
KNH1 141905Z 07012KT 34/12 A3018 RMK A01 T03350124  RH  028%=      5-min Rain = 0
KNH1 141906Z 07012KT 34/13 A3018 RMK A01 T03350130  RH  029%=      5-min Rain = 0
KNH1 141907Z 08009KT 33/13 A3018 RMK A01 T03340131  RH  029%=      5-min Rain = 0
KNH1 141908Z 05009KT 33/13 A3018 RMK A01 T03310131  RH  030%=      5-min Rain = 0
KNH1 141909Z 07009G18KT 33/13 A3018 RMK A01 T03300131  RH  030%=      5-min Rain = 0
KNH1 141910Z 06014G19KT 33/13 A3018 RMK A01 T03320129  RH  029%=      5-min Rain = 0
KNH1 141911Z 06010KT 33/13 A3018 RMK A01 T03330131  RH  029%=      5-min Rain = 0
KNH1 141912Z 06013KT 34/13 A3018 RMK A01 T03380134  RH  029%=      5-min Rain = 0
KNH1 141913Z 06010G15KT 34/13 A3018 RMK A01 T03390132  RH  029%=      5-min Rain = 0
KNH1 141914Z 08008KT 34/13 A3018 RMK A01 T03380134  RH  029%=      5-min Rain = 0
KNH1 141915Z 08007KT 34/14 A3018 RMK A01 T03390136  RH  029%=      5-min Rain = 0
KNH1 141916Z 07009KT 34/14 A3018 RMK A01 T03420135  RH  029%=      5-min Rain = 0
KNH1 141917Z 07007KT 34/13 A3018 RMK A01 T03410134  RH  029%=      5-min Rain = 0
KNH1 141918Z 06009KT 34/13 A3018 RMK A01 T03390134  RH  029%=      5-min Rain = 0
KNH1 141919Z 07012KT 34/13 A3018 RMK A01 T03390132  RH  029%=      5-min Rain = 0
KNH1 141920Z 08014G21KT 34/13 A3018 RMK A01 T03390131  RH  028%=      5-min Rain = 0
KNH1 141921Z 09011KT 34/13 A3018 RMK A01 T03390129  RH  028%=      5-min Rain = 0
KNH1 141922Z 09012KT 34/13 A3018 RMK A01 T03400130  RH  028%=      5-min Rain = 0
KNH1 141923Z 08010KT 34/13 A3018 RMK A01 T03360126  RH  028%=      5-min Rain = 0
KNH1 141924Z 09009G17KT 34/13 A3018 RMK A01 T03360128  RH  028%=      5-min Rain = 0
KNH1 141925Z 08010KT 34/13 A3018 RMK A01 T03390126  RH  028%=      5-min Rain = 0
KNH1 141926Z 08012KT 34/13 A3018 RMK A01 T03420129  RH  028%=      5-min Rain = 0
KNH1 141927Z 04012G17KT 35/13 A3018 RMK A01 T03460126  RH  027%=      5-min Rain = 0
KNH1 141928Z 05012KT 34/12 A3018 RMK A01 T03420123  RH  027%=      5-min Rain = 0
KNH1 141929Z 07012G17KT 34/12 A3018 RMK A01 T03390123  RH  027%=      5-min Rain = 0
KNH1 141930Z 07014KT 34/12 A3018 RMK A01 T03400119  RH  026%=      5-min Rain = 0
KNH1 141931Z 07014G19KT 34/12 A3018 RMK A01 T03400116  RH  026%=      5-min Rain = 0
KNH1 141932Z 07012KT 34/12 A3018 RMK A01 T03400119  RH  026%=      5-min Rain = 0
KNH1 141933Z 08011KT 34/12 A3018 RMK A01 T03410120  RH  026%=      5-min Rain = 0
KNH1 141934Z 09009KT 34/12 A3018 RMK A01 T03400120  RH  026%=      5-min Rain = 0
KNH1 141935Z 06013KT 34/12 A3018 RMK A01 T03390122  RH  027%=      5-min Rain = 0
KNH1 141936Z 05010KT 34/12 A3018 RMK A01 T03380121  RH  027%=      5-min Rain = 0
KNH1 141937Z 07009KT 34/12 A3018 RMK A01 T03370121  RH  027%=      5-min Rain = 0
KNH1 141938Z 07006KT 34/12 A3017 RMK A01 T03360123  RH  027%=      5-min Rain = 0
KNH1 141939Z 08008G15KT 34/12 A3017 RMK A01 T03390124  RH  027%=      5-min Rain = 0
KNH1 141940Z 07017KT 34/12 A3017 RMK A01 T03410117  RH  026%=      5-min Rain = 0
KNH1 141941Z 07014G19KT 34/11 A3017 RMK A01 T03400112  RH  025%=      5-min Rain = 0
KNH1 141942Z 06012KT 34/11 A3017 RMK A01 T03400114  RH  025%=      5-min Rain = 0
KNH1 141943Z 06010KT 34/11 A3017 RMK A01 T03370111  RH  025%=      5-min Rain = 0
KNH1 141944Z 04008KT 33/11 A3017 RMK A01 T03340114  RH  026%=      5-min Rain = 0
KNH1 141945Z 08007KT 33/12 A3017 RMK A01 T03340115  RH  026%=      5-min Rain = 0
KNH1 141946Z 07007KT 34/11 A3017 RMK A01 T03370114  RH  026%=      5-min Rain = 0
KNH1 141947Z 08007KT 34/12 A3017 RMK A01 T03400118  RH  026%=      5-min Rain = 0
KNH1 141948Z 09008KT 34/12 A3017 RMK A01 T03440117  RH  025%=      5-min Rain = 0
KNH1 141949Z 07011G19KT 34/12 A3017 RMK A01 T03440119  RH  026%=      5-min Rain = 0
KNH1 141950Z 05012KT 34/12 A3017 RMK A01 T03440118  RH  026%=      5-min Rain = 0
KNH1 141951Z 05011KT 34/12 A3017 RMK A01 T03420119  RH  026%=      5-min Rain = 0
KNH1 141952Z 06011KT 34/12 A3017 RMK A01 T03420119  RH  026%=      5-min Rain = 0
KNH1 141953Z 05010G18KT 34/12 A3017 RMK A01 T03410118  RH  026%=      5-min Rain = 0
KNH1 141954Z 05015KT 34/12 A3016 RMK A01 T03430118  RH  026%=      5-min Rain = 0
KNH1 141955Z 06011KT 34/12 A3017 RMK A01 T03390115  RH  026%=      5-min Rain = 0
KNH1 141956Z 05013KT 34/12 A3016 RMK A01 T03350115  RH  026%=      5-min Rain = 0
KNH1 141957Z 06015G20KT 34/12 A3016 RMK A01 T03370116  RH  026%=      5-min Rain = 0
KNH1 141958Z 05010KT 34/12 A3017 RMK A01 T03390115  RH  026%=      5-min Rain = 0
KNH1 141959Z 05008KT 34/12 A3017 RMK A01 T03390115  RH  026%=      5-min Rain = 0
KNH1 142000Z 07010G18KT 34/12 A3016 RMK A01 T03410116  RH  025%=      5-min Rain = 0
KNH1 142001Z 06014KT 34/12 A3016 RMK A01 T03430115  RH  025%=      5-min Rain = 0
KNH1 142002Z 09011KT 34/11 A3016 RMK A01 T03430113  RH  025%=      5-min Rain = 0
KNH1 142003Z 07010KT 34/12 A3016 RMK A01 T03430115  RH  025%=      5-min Rain = 0
KNH1 142004Z 03014KT 34/11 A3016 RMK A01 T03430113  RH  025%=      5-min Rain = 0
KNH1 142005Z 03013KT 34/11 A3016 RMK A01 T03410111  RH  025%=      5-min Rain = 0
KNH1 142006Z 04012G17KT 34/11 A3016 RMK A01 T03380111  RH  025%=      5-min Rain = 0
KNH1 142007Z 05011KT 34/11 A3016 RMK A01 T03390112  RH  025%=      5-min Rain = 0
KNH1 142008Z 05011KT 34/11 A3016 RMK A01 T03400113  RH  025%=      5-min Rain = 0
KNH1 142009Z 04011KT 34/11 A3016 RMK A01 T03420114  RH  025%=      5-min Rain = 0
KNH1 142010Z 03011KT 34/12 A3016 RMK A01 T03410115  RH  025%=      5-min Rain = 0
KNH1 142011Z 02010KT 34/11 A3016 RMK A01 T03400110  RH  025%=      5-min Rain = 0
KNH1 142012Z 04014G19KT 34/11 A3015 RMK A01 T03380110  RH  025%=      5-min Rain = 0
KNH1 142013Z 07012KT 34/11 A3016 RMK A01 T03400109  RH  025%=      5-min Rain = 0
KNH1 142014Z 05011KT 34/11 A3016 RMK A01 T03420108  RH  024%=      5-min Rain = 0
KNH1 142015Z 05008KT 34/11 A3016 RMK A01 T03400108  RH  024%=      5-min Rain = 0
KNH1 142016Z 06008KT 34/11 A3016 RMK A01 T03380112  RH  025%=      5-min Rain = 0
KNH1 142017Z 07010KT 34/11 A3015 RMK A01 T03420111  RH  025%=      5-min Rain = 0
KNH1 142018Z 08010KT 34/11 A3015 RMK A01 T03420112  RH  025%=      5-min Rain = 0
KNH1 142019Z 08007KT 34/11 A3015 RMK A01 T03390113  RH  025%=      5-min Rain = 0
KNH1 142020Z 05008KT 34/12 A3015 RMK A01 T03400117  RH  026%=      5-min Rain = 0
KNH1 142021Z 06008KT 34/12 A3015 RMK A01 T03440116  RH  025%=      5-min Rain = 0
KNH1 142022Z 07007KT 34/12 A3015 RMK A01 T03400116  RH  026%=      5-min Rain = 0
KNH1 142023Z 07007G12KT 34/12 A3015 RMK A01 T03400116  RH  026%=      5-min Rain = 0
KNH1 142024Z 07012KT 34/11 A3015 RMK A01 T03410114  RH  025%=      5-min Rain = 0
KNH1 142025Z 06013KT 34/11 A3015 RMK A01 T03430109  RH  024%=      5-min Rain = 0
KNH1 142026Z 07012KT 34/11 A3015 RMK A01 T03440111  RH  024%=      5-min Rain = 0
KNH1 142027Z 06008G13KT 35/11 A3015 RMK A01 T03450109  RH  024%=      5-min Rain = 0
KNH1 142028Z 05006G12KT 34/11 A3015 RMK A01 T03400108  RH  024%=      5-min Rain = 0
KNH1 142029Z 07010KT 34/11 A3015 RMK A01 T03400111  RH  025%=      5-min Rain = 0
KNH1 142030Z 08008KT 34/11 A3015 RMK A01 T03410114  RH  025%=      5-min Rain = 0
KNH1 142031Z 08009KT 34/12 A3014 RMK A01 T03430116  RH  025%=      5-min Rain = 0
KNH1 142032Z 09007KT 34/12 A3014 RMK A01 T03430117  RH  025%=      5-min Rain = 0
KNH1 142033Z 08009KT 34/12 A3014 RMK A01 T03430119  RH  026%=      5-min Rain = 0
KNH1 142034Z 08008KT 34/12 A3014 RMK A01 T03430119  RH  026%=      5-min Rain = 0
KNH1 142035Z 09008KT 35/12 A3014 RMK A01 T03450118  RH  025%=      5-min Rain = 0
KNH1 142036Z 07013KT 35/12 A3014 RMK A01 T03480116  RH  024%=      5-min Rain = 0
KNH1 142037Z 07011KT 35/11 A3014 RMK A01 T03500112  RH  024%=      5-min Rain = 0
KNH1 142038Z 06010KT 35/11 A3014 RMK A01 T03480112  RH  024%=      5-min Rain = 0
KNH1 142039Z 06009KT 35/11 A3014 RMK A01 T03460114  RH  024%=      5-min Rain = 0
KNH1 142040Z 05007KT 35/12 A3014 RMK A01 T03460115  RH  025%=      5-min Rain = 0
KNH1 142041Z 07006KT 35/12 A3014 RMK A01 T03460115  RH  025%=      5-min Rain = 0
KNH1 142042Z 08006KT 35/12 A3014 RMK A01 T03450115  RH  025%=      5-min Rain = 0
KNH1 142043Z 05009KT 35/11 A3014 RMK A01 T03470113  RH  024%=      5-min Rain = 0
KNH1 142044Z 05011KT 35/11 A3014 RMK A01 T03470114  RH  024%=      5-min Rain = 0
KNH1 142045Z 04009G14KT 35/12 A3013 RMK A01 T03450118  RH  025%=      5-min Rain = 0
KNH1 142046Z 05010KT 34/12 A3013 RMK A01 T03430116  RH  025%=      5-min Rain = 0
KNH1 142047Z 06006KT 34/11 A3013 RMK A01 T03390111  RH  025%=      5-min Rain = 0
KNH1 142048Z 06004KT 34/11 A3013 RMK A01 T03360111  RH  025%=      5-min Rain = 0
KNH1 142049Z 05008KT 34/12 A3013 RMK A01 T03380115  RH  026%=      5-min Rain = 0
KNH1 142050Z 06011KT 34/11 A3013 RMK A01 T03430113  RH  025%=      5-min Rain = 0
KNH1 142051Z 05010G15KT 34/11 A3013 RMK A01 T03420110  RH  024%=      5-min Rain = 0
KNH1 142052Z 05009KT 34/11 A3013 RMK A01 T03400110  RH  025%=      5-min Rain = 0
KNH1 142053Z 05006KT 34/11 A3013 RMK A01 T03400114  RH  025%=      5-min Rain = 0
KNH1 142054Z 06006KT 34/11 A3013 RMK A01 T03440112  RH  024%=      5-min Rain = 0
KNH1 142055Z 04006KT 34/11 A3013 RMK A01 T03420111  RH  025%=      5-min Rain = 0
KNH1 142056Z 03008KT 34/11 A3013 RMK A01 T03420114  RH  025%=      5-min Rain = 0
KNH1 142057Z 02010KT 35/12 A3013 RMK A01 T03460115  RH  025%=      5-min Rain = 0
KNH1 142058Z 03006KT 34/12 A3013 RMK A01 T03440115  RH  025%=      5-min Rain = 0
KNH1 142059Z 03006KT 34/12 A3013 RMK A01 T03420116  RH  025%=      5-min Rain = 0
KNH1 142100Z 03010KT 34/12 A3012 RMK A01 T03430117  RH  025%=      5-min Rain = 0
KNH1 142101Z 07009KT 34/12 A3012 RMK A01 T03440117  RH  025%=      5-min Rain = 0
KNH1 142102Z 07010G15KT 35/12 A3012 RMK A01 T03460116  RH  025%=      5-min Rain = 0
KNH1 142103Z 08009KT 35/12 A3012 RMK A01 T03450117  RH  025%=      5-min Rain = 0
KNH1 142104Z 08010KT 35/12 A3012 RMK A01 T03460115  RH  025%=      5-min Rain = 0
KNH1 142105Z 08009KT 35/12 A3012 RMK A01 T03480115  RH  024%=      5-min Rain = 0
KNH1 142106Z 08008KT 35/12 A3012 RMK A01 T03480116  RH  024%=      5-min Rain = 0
KNH1 142107Z 09008KT 35/12 A3012 RMK A01 T03490115  RH  024%=      5-min Rain = 0
KNH1 142108Z 08006KT 35/12 A3012 RMK A01 T03490115  RH  024%=      5-min Rain = 0
KNH1 142109Z 03005KT 35/12 A3012 RMK A01 T03480115  RH  024%=      5-min Rain = 0
KNH1 142110Z 04006KT 35/11 A3012 RMK A01 T03470113  RH  024%=      5-min Rain = 0
KNH1 142111Z 03008KT 35/11 A3012 RMK A01 T03470114  RH  024%=      5-min Rain = 0
KNH1 142112Z 07007KT 35/11 A3012 RMK A01 T03450114  RH  025%=      5-min Rain = 0
KNH1 142113Z 08009KT 34/11 A3012 RMK A01 T03440114  RH  025%=      5-min Rain = 0
KNH1 142114Z 08009KT 34/11 A3012 RMK A01 T03440113  RH  025%=      5-min Rain = 0
KNH1 142115Z 07009KT 35/11 A3012 RMK A01 T03450113  RH  024%=      5-min Rain = 0
KNH1 142116Z 07007KT 35/11 A3012 RMK A01 T03460114  RH  024%=      5-min Rain = 0
KNH1 142117Z 04005KT 35/12 A3012 RMK A01 T03450118  RH  025%=      5-min Rain = 0
KNH1 142118Z 06004KT 34/12 A3012 RMK A01 T03430117  RH  025%=      5-min Rain = 0
KNH1 142119Z 06005KT 34/12 A3012 RMK A01 T03410118  RH  026%=      5-min Rain = 0
KNH1 142120Z 06008KT 34/12 A3012 RMK A01 T03410116  RH  026%=      5-min Rain = 0
KNH1 142121Z 08009KT 34/11 A3012 RMK A01 T03410113  RH  025%=      5-min Rain = 0
KNH1 142122Z 09009KT 34/11 A3012 RMK A01 T03440114  RH  025%=      5-min Rain = 0
KNH1 142123Z 11008KT 34/11 A3012 RMK A01 T03430113  RH  025%=      5-min Rain = 0
KNH1 142124Z 09008KT 34/11 A3012 RMK A01 T03430112  RH  025%=      5-min Rain = 0
KNH1 142125Z 07009KT 34/11 A3012 RMK A01 T03420112  RH  025%=      5-min Rain = 0
KNH1 142126Z 07009KT 34/11 A3011 RMK A01 T03430109  RH  024%=      5-min Rain = 0
KNH1 142127Z 08010KT 34/11 A3012 RMK A01 T03430108  RH  024%=      5-min Rain = 0
KNH1 142128Z 08008KT 34/11 A3012 RMK A01 T03440107  RH  024%=      5-min Rain = 0
KNH1 142129Z 08010KT 34/11 A3011 RMK A01 T03430106  RH  024%=      5-min Rain = 0
KNH1 142130Z 08010KT 34/10 A3011 RMK A01 T03440104  RH  023%=      5-min Rain = 0
KNH1 142131Z 08006KT 34/10 A3011 RMK A01 T03430102  RH  023%=      5-min Rain = 0
KNH1 142132Z 08006KT 34/10 A3011 RMK A01 T03400102  RH  023%=      5-min Rain = 0
KNH1 142133Z 10007KT 34/11 A3011 RMK A01 T03420105  RH  024%=      5-min Rain = 0
KNH1 142134Z 09007KT 35/11 A3011 RMK A01 T03450107  RH  023%=      5-min Rain = 0
KNH1 142135Z 09007KT 35/11 A3011 RMK A01 T03480109  RH  024%=      5-min Rain = 0
KNH1 142136Z 08010KT 35/11 A3011 RMK A01 T03500109  RH  023%=      5-min Rain = 0
KNH1 142137Z 08009KT 35/11 A3011 RMK A01 T03500107  RH  023%=      5-min Rain = 0
KNH1 142138Z 07009KT 35/11 A3011 RMK A01 T03510105  RH  023%=      5-min Rain = 0
KNH1 142139Z 06009KT 35/10 A3011 RMK A01 T03490103  RH  022%=      5-min Rain = 0
KNH1 142140Z 07008KT 35/10 A3011 RMK A01 T03470104  RH  023%=      5-min Rain = 0
KNH1 142141Z 07005KT 35/10 A3011 RMK A01 T03460103  RH  023%=      5-min Rain = 0
KNH1 142142Z 07004KT 34/10 A3011 RMK A01 T03440103  RH  023%=      5-min Rain = 0
KNH1 142143Z 11007KT 34/11 A3011 RMK A01 T03440105  RH  023%=      5-min Rain = 0
KNH1 142144Z 09005KT 35/11 A3011 RMK A01 T03490105  RH  023%=      5-min Rain = 0
KNH1 142145Z 07002KT 35/10 A3011 RMK A01 T03500102  RH  022%=      5-min Rain = 0
KNH1 142146Z 05001KT 35/10 A3011 RMK A01 T03510103  RH  022%=      5-min Rain = 0
KNH1 142147Z 09003KT 35/10 A3011 RMK A01 T03510103  RH  022%=      5-min Rain = 0
KNH1 142148Z 08002KT 35/10 A3011 RMK A01 T03490102  RH  022%=      5-min Rain = 0
KNH1 142149Z 06005KT 35/10 A3011 RMK A01 T03470102  RH  022%=      5-min Rain = 0
KNH1 142150Z 04006KT 35/11 A3011 RMK A01 T03470107  RH  023%=      5-min Rain = 0
KNH1 142151Z 03007KT 35/11 A3011 RMK A01 T03480107  RH  023%=      5-min Rain = 0
KNH1 142152Z 03006KT 35/11 A3011 RMK A01 T03470106  RH  023%=      5-min Rain = 0
KNH1 142153Z 04006KT 35/11 A3011 RMK A01 T03470108  RH  023%=      5-min Rain = 0
KNH1 142154Z 07006KT 35/11 A3011 RMK A01 T03500107  RH  023%=      5-min Rain = 0
KNH1 142155Z 06006KT 35/11 A3011 RMK A01 T03500106  RH  023%=      5-min Rain = 0
KNH1 142156Z 04009KT 35/11 A3011 RMK A01 T03520105  RH  022%=      5-min Rain = 0
KNH1 142157Z 04009KT 35/10 A3011 RMK A01 T03520102  RH  022%=      5-min Rain = 0
KNH1 142158Z 04007KT 35/10 A3011 RMK A01 T03490104  RH  023%=      5-min Rain = 0
KNH1 142159Z 04008KT 35/11 A3011 RMK A01 T03480107  RH  023%=      5-min Rain = 0
KNH1 142200Z 05008KT 35/11 A3011 RMK A01 T03470107  RH  023%=      5-min Rain = 0
KNH1 142201Z 07009KT 34/11 A3011 RMK A01 T03440111  RH  024%=      5-min Rain = 0
KNH1 142202Z 07006KT 34/11 A3011 RMK A01 T03440109  RH  024%=      5-min Rain = 0
KNH1 142203Z 06006KT 35/11 A3011 RMK A01 T03460109  RH  024%=      5-min Rain = 0
KNH1 142204Z 04005KT 35/10 A3011 RMK A01 T03450104  RH  023%=      5-min Rain = 0
KNH1 142205Z 02005KT 34/10 A3011 RMK A01 T03430103  RH  023%=      5-min Rain = 0
KNH1 142206Z 36005KT 34/10 A3011 RMK A01 T03430100  RH  023%=      5-min Rain = 0
KNH1 142207Z 00001KT 34/11 A3011 RMK A01 T03430105  RH  024%=      5-min Rain = 0
KNH1 142208Z 34002KT 34/11 A301 RMK A01 T03440105  RH  023%=      5-min Rain = 0
KNH1 142209Z 02006KT 35/11 A301 RMK A01 T03470111  RH  024%=      5-min Rain = 0
KNH1 142210Z 08010G17KT 35/11 A301 RMK A01 T03490112  RH  024%=      5-min Rain = 0
KNH1 142211Z 08009KT 35/11 A301 RMK A01 T03490113  RH  024%=      5-min Rain = 0
KNH1 142212Z 07009KT 35/11 A301 RMK A01 T03490112  RH  024%=      5-min Rain = 0
KNH1 142213Z 07007KT 35/11 A301 RMK A01 T03470111  RH  024%=      5-min Rain = 0
KNH1 142214Z 06004KT 34/11 A301 RMK A01 T03440109  RH  024%=      5-min Rain = 0
KNH1 142215Z 10005KT 34/11 A301 RMK A01 T03430109  RH  024%=      5-min Rain = 0
KNH1 142216Z 06008KT 34/11 A301 RMK A01 T03440110  RH  024%=      5-min Rain = 0
KNH1 142217Z 08004KT 35/11 A301 RMK A01 T03450109  RH  024%=      5-min Rain = 0
KNH1 142218Z 07004KT 34/11 A301 RMK A01 T03440110  RH  024%=      5-min Rain = 0
KNH1 142219Z 04001KT 35/11 A301 RMK A01 T03450109  RH  024%=      5-min Rain = 0
KNH1 142220Z 09007KT 35/11 A301 RMK A01 T03470111  RH  024%=      5-min Rain = 0
KNH1 142221Z 06007KT 35/12 A301 RMK A01 T03490115  RH  024%=      5-min Rain = 0
KNH1 142222Z 09011KT 35/11 A301 RMK A01 T03510114  RH  024%=      5-min Rain = 0
KNH1 142223Z 09009KT 35/11 A301 RMK A01 T03500109  RH  023%=      5-min Rain = 0
KNH1 142224Z 10006KT 35/11 A301 RMK A01 T03470108  RH  023%=      5-min Rain = 0
KNH1 142225Z 08005KT 35/11 A301 RMK A01 T03450107  RH  024%=      5-min Rain = 0
KNH1 142226Z 07006KT 35/11 A301 RMK A01 T03450111  RH  024%=      5-min Rain = 0
KNH1 142227Z 09004KT 35/11 A301 RMK A01 T03480112  RH  024%=      5-min Rain = 0
KNH1 142228Z 11004KT 35/11 A301 RMK A01 T03490111  RH  024%=      5-min Rain = 0
KNH1 142229Z 11003KT 35/11 A301 RMK A01 T03500110  RH  023%=      5-min Rain = 0
KNH1 142230Z 08003KT 35/11 A301 RMK A01 T03500109  RH  023%=      5-min Rain = 0
KNH1 142231Z 07005KT 35/11 A301 RMK A01 T03500108  RH  023%=      5-min Rain = 0
KNH1 142232Z 07003KT 35/10 A301 RMK A01 T03480102  RH  022%=      5-min Rain = 0
KNH1 142233Z 07001KT 35/10 A301 RMK A01 T03450101  RH  023%=      5-min Rain = 0
KNH1 142234Z 03003KT 35/10 A301 RMK A01 T03450102  RH  023%=      5-min Rain = 0
KNH1 142235Z 04005KT 35/10 A301 RMK A01 T03460104  RH  023%=      5-min Rain = 0
KNH1 142236Z 05006KT 35/11 A301 RMK A01 T03470107  RH  023%=      5-min Rain = 0
KNH1 142237Z 13005KT 35/11 A301 RMK A01 T03460106  RH  023%=      5-min Rain = 0
KNH1 142238Z 16003KT 35/11 A301 RMK A01 T03480106  RH  023%=      5-min Rain = 0
KNH1 142239Z 13002KT 35/11 A301 RMK A01 T03480105  RH  023%=      5-min Rain = 0
KNH1 142240Z 09002KT 35/11 A301 RMK A01 T03470106  RH  023%=      5-min Rain = 0
KNH1 142241Z 03004KT 35/11 A301 RMK A01 T03460106  RH  023%=      5-min Rain = 0
KNH1 142242Z 04008KT 35/11 A301 RMK A01 T03470109  RH  024%=      5-min Rain = 0
KNH1 142243Z 05008KT 35/11 A301 RMK A01 T03470108  RH  023%=      5-min Rain = 0
KNH1 142244Z 06008KT 35/11 A301 RMK A01 T03460107  RH  023%=      5-min Rain = 0
KNH1 142245Z 03008KT 35/11 A301 RMK A01 T03460106  RH  023%=      5-min Rain = 0
KNH1 142246Z 02006KT 34/11 A301 RMK A01 T03440107  RH  024%=      5-min Rain = 0
KNH1 142247Z 03006KT 34/11 A301 RMK A01 T03440107  RH  024%=      5-min Rain = 0
KNH1 142248Z 03007KT 34/11 A301 RMK A01 T03440105  RH  023%=      5-min Rain = 0
KNH1 142249Z 35004KT 34/11 A301 RMK A01 T03440105  RH  023%=      5-min Rain = 0
KNH1 142250Z 00003KT 34/11 A301 RMK A01 T03430105  RH  023%=      5-min Rain = 0
KNH1 142251Z 03004KT 34/10 A301 RMK A01 T03430104  RH  023%=      5-min Rain = 0
KNH1 142252Z 02005KT 34/11 A301 RMK A01 T03430106  RH  024%=      5-min Rain = 0
KNH1 142253Z 05006KT 35/11 A301 RMK A01 T03450107  RH  024%=      5-min Rain = 0
KNH1 142254Z 04005KT 35/11 A301 RMK A01 T03470110  RH  024%=      5-min Rain = 0
KNH1 142255Z 02006KT 35/11 A301 RMK A01 T03500109  RH  023%=      5-min Rain = 0
KNH1 142256Z 05005KT 35/11 A301 RMK A01 T03500109  RH  023%=      5-min Rain = 0
KNH1 142257Z 09006KT 35/11 A301 RMK A01 T03500110  RH  023%=      5-min Rain = 0
KNH1 142258Z 08008KT 35/11 A301 RMK A01 T03500108  RH  023%=      5-min Rain = 0
KNH1 142259Z 08008KT 35/11 A301 RMK A01 T03480107  RH  023%=      5-min Rain = 0
KNH1 142300Z 08006KT 35/11 A301 RMK A01 T03450107  RH  023%=      5-min Rain = 0
KNH1 142301Z 07004KT 34/11 A301 RMK A01 T03440107  RH  024%=      5-min Rain = 0
KNH1 142302Z 06005KT 34/11 A301 RMK A01 T03430107  RH  024%=      5-min Rain = 0
KNH1 142303Z 07003KT 34/11 A301 RMK A01 T03420106  RH  024%=      5-min Rain = 0
KNH1 142304Z 06007KT 34/11 A301 RMK A01 T03420107  RH  024%=      5-min Rain = 0
KNH1 142305Z 05008KT 34/11 A301 RMK A01 T03440108  RH  024%=      5-min Rain = 0
KNH1 142306Z 04007KT 34/11 A301 RMK A01 T03440108  RH  024%=      5-min Rain = 0
KNH1 142307Z 04007KT 35/11 A3009 RMK A01 T03450109  RH  024%=      5-min Rain = 0
KNH1 142308Z 04006KT 35/11 A301 RMK A01 T03460109  RH  024%=      5-min Rain = 0
KNH1 142309Z 03006KT 35/11 A3009 RMK A01 T03460108  RH  023%=      5-min Rain = 0
KNH1 142310Z 02007KT 35/11 A3009 RMK A01 T03460108  RH  024%=      5-min Rain = 0
KNH1 142311Z 05006KT 35/11 A3009 RMK A01 T03450108  RH  024%=      5-min Rain = 0
KNH1 142312Z 05009KT 35/11 A301 RMK A01 T03460105  RH  023%=      5-min Rain = 0
KNH1 142313Z 05009KT 35/10 A301 RMK A01 T03460102  RH  023%=      5-min Rain = 0
KNH1 142314Z 05008KT 35/10 A301 RMK A01 T03450102  RH  023%=      5-min Rain = 0
KNH1 142315Z 05006KT 34/10 A301 RMK A01 T03430102  RH  023%=      5-min Rain = 0
KNH1 142316Z 04008KT 34/10 A301 RMK A01 T03430104  RH  023%=      5-min Rain = 0
KNH1 142317Z 03009KT 35/11 A301 RMK A01 T03450106  RH  023%=      5-min Rain = 0
KNH1 142318Z 03007KT 35/11 A301 RMK A01 T03460111  RH  024%=      5-min Rain = 0
KNH1 142319Z 02006KT 35/11 A301 RMK A01 T03450109  RH  024%=      5-min Rain = 0
KNH1 142320Z 02006KT 34/11 A301 RMK A01 T03430109  RH  024%=      5-min Rain = 0
KNH1 142321Z 03007KT 34/11 A301 RMK A01 T03430109  RH  024%=      5-min Rain = 0
KNH1 142322Z 02006KT 34/11 A301 RMK A01 T03430109  RH  024%=      5-min Rain = 0
KNH1 142323Z 04005KT 34/11 A301 RMK A01 T03430109  RH  024%=      5-min Rain = 0
KNH1 142324Z 06005KT 34/11 A301 RMK A01 T03430109  RH  024%=      5-min Rain = 0
KNH1 142325Z 08003KT 34/11 A301 RMK A01 T03420110  RH  024%=      5-min Rain = 0
KNH1 142326Z 07004KT 34/11 A301 RMK A01 T03430112  RH  025%=      5-min Rain = 0
KNH1 142327Z 07009KT 35/11 A3009 RMK A01 T03450112  RH  024%=      5-min Rain = 0
KNH1 142328Z 07009KT 35/11 A301 RMK A01 T03450112  RH  024%=      5-min Rain = 0
KNH1 142329Z 08009KT 35/11 A3009 RMK A01 T03460110  RH  024%=      5-min Rain = 0
KNH1 142330Z 08008KT 35/11 A301 RMK A01 T03460110  RH  024%=      5-min Rain = 0
KNH1 142331Z 08007KT 35/11 A301 RMK A01 T03460109  RH  024%=      5-min Rain = 0
KNH1 142332Z 07007G12KT 35/11 A3009 RMK A01 T03470110  RH  024%=      5-min Rain = 0
KNH1 142333Z 04009KT 35/11 A3009 RMK A01 T03470113  RH  024%=      5-min Rain = 0
KNH1 142334Z 04009KT 35/11 A3009 RMK A01 T03460113  RH  024%=      5-min Rain = 0
KNH1 142335Z 04008KT 34/11 A3009 RMK A01 T03440113  RH  025%=      5-min Rain = 0
KNH1 142336Z 05006KT 34/11 A3009 RMK A01 T03440114  RH  025%=      5-min Rain = 0
KNH1 142337Z 03007KT 34/11 A3009 RMK A01 T03440113  RH  024%=      5-min Rain = 0
KNH1 142338Z 03006KT 34/11 A3009 RMK A01 T03440112  RH  024%=      5-min Rain = 0
KNH1 142339Z 04006KT 34/11 A3009 RMK A01 T03430110  RH  024%=      5-min Rain = 0
KNH1 142340Z 02005KT 34/11 A3009 RMK A01 T03420109  RH  024%=      5-min Rain = 0
KNH1 142341Z 03003KT 34/11 A3009 RMK A01 T03410109  RH  024%=      5-min Rain = 0
KNH1 142342Z 07009KT 34/11 A3009 RMK A01 T03420110  RH  024%=      5-min Rain = 0
KNH1 142343Z 07007KT 34/11 A3009 RMK A01 T03420110  RH  024%=      5-min Rain = 0
KNH1 142344Z 06006KT 34/11 A3009 RMK A01 T03420111  RH  024%=      5-min Rain = 0
KNH1 142345Z 07004KT 34/11 A3009 RMK A01 T03430112  RH  025%=      5-min Rain = 0
KNH1 142346Z 06005KT 34/11 A3009 RMK A01 T03440114  RH  025%=      5-min Rain = 0
KNH1 142347Z 04006KT 35/12 A3009 RMK A01 T03450116  RH  025%=      5-min Rain = 0
KNH1 142348Z 05006KT 35/12 A3009 RMK A01 T03450117  RH  025%=      5-min Rain = 0
KNH1 142349Z 07009KT 34/12 A3009 RMK A01 T03440115  RH  025%=      5-min Rain = 0
KNH1 142350Z 07007KT 34/11 A3009 RMK A01 T03420113  RH  025%=      5-min Rain = 0
KNH1 142351Z 06006KT 34/11 A3009 RMK A01 T03420113  RH  025%=      5-min Rain = 0
KNH1 142352Z 06005KT 34/11 A3009 RMK A01 T03410114  RH  025%=      5-min Rain = 0
KNH1 142353Z 06005KT 34/12 A3009 RMK A01 T03420115  RH  025%=      5-min Rain = 0
KNH1 142354Z 05006KT 34/11 A3009 RMK A01 T03430114  RH  025%=      5-min Rain = 0
KNH1 142355Z 07005KT 34/11 A3009 RMK A01 T03430114  RH  025%=      5-min Rain = 0
KNH1 142356Z 07005KT 34/11 A3009 RMK A01 T03420113  RH  025%=      5-min Rain = 0
KNH1 142357Z 08004KT 34/11 A3009 RMK A01 T03420113  RH  025%=      5-min Rain = 0
KNH1 142358Z 07004KT 34/11 A3009 RMK A01 T03420113  RH  025%=      5-min Rain = 0
KNH1 142359Z 07003KT 34/11 A3009 RMK A01 T03400112  RH  025%=      5-min Rain = 0
KNH1 150000Z 06004KT 34/11 A3009 RMK A01 T03390112  RH  025%=      5-min Rain = 0
KNH1 150001Z 07006KT 34/11 A3009 RMK A01 T03390113  RH  025%=      5-min Rain = 0
KNH1 150002Z 06004KT 34/11 A3009 RMK A01 T03390113  RH  025%=      5-min Rain = 0
KNH1 150003Z 05003KT 34/11 A3009 RMK A01 T03390113  RH  025%=      5-min Rain = 0
KNH1 150004Z 06002KT 34/11 A3009 RMK A01 T03390112  RH  025%=      5-min Rain = 0
KNH1 150005Z 07003KT 34/11 A3009 RMK A01 T03390112  RH  025%=      5-min Rain = 0
KNH1 150006Z 07003KT 34/11 A3009 RMK A01 T03390113  RH  025%=      5-min Rain = 0
KNH1 150007Z 08004KT 34/11 A3009 RMK A01 T03400113  RH  025%=      5-min Rain = 0
KNH1 150008Z 06003G8KT 34/11 A3009 RMK A01 T03400112  RH  025%=      5-min Rain = 0
KNH1 150009Z 05007KT 34/12 A3009 RMK A01 T03400115  RH  026%=      5-min Rain = 0
KNH1 150010Z 04006KT 34/12 A3009 RMK A01 T03390117  RH  026%=      5-min Rain = 0
KNH1 150011Z 07005KT 34/12 A3009 RMK A01 T03400119  RH  026%=      5-min Rain = 0
KNH1 150012Z 09005KT 34/12 A3009 RMK A01 T03420122  RH  026%=      5-min Rain = 0
KNH1 150013Z 08006KT 34/13 A3009 RMK A01 T03430125  RH  027%=      5-min Rain = 0
KNH1 150014Z 08008KT 34/12 A3009 RMK A01 T03420123  RH  026%=      5-min Rain = 0
KNH1 150015Z 09008KT 34/12 A3009 RMK A01 T03410118  RH  026%=      5-min Rain = 0
KNH1 150016Z 08007KT 34/12 A3009 RMK A01 T03410117  RH  026%=      5-min Rain = 0
KNH1 150017Z 09005KT 34/12 A3009 RMK A01 T03410118  RH  026%=      5-min Rain = 0
KNH1 150018Z 10005KT 34/12 A3009 RMK A01 T03410118  RH  026%=      5-min Rain = 0
KNH1 150019Z 12003KT 34/12 A3009 RMK A01 T03410121  RH  026%=      5-min Rain = 0
KNH1 150020Z 10005KT 34/13 A3009 RMK A01 T03420126  RH  027%=      5-min Rain = 0
KNH1 150021Z 09005KT 34/13 A3009 RMK A01 T03420129  RH  028%=      5-min Rain = 0
KNH1 150022Z 09006KT 34/13 A3009 RMK A01 T03410126  RH  027%=      5-min Rain = 0
KNH1 150023Z 09005KT 34/12 A3009 RMK A01 T03400123  RH  027%=      5-min Rain = 0
KNH1 150024Z 09005KT 34/12 A3009 RMK A01 T03390123  RH  027%=      5-min Rain = 0
KNH1 150025Z 08005KT 34/12 A3009 RMK A01 T03390120  RH  027%=      5-min Rain = 0
KNH1 150026Z 07006KT 34/12 A3009 RMK A01 T03390119  RH  026%=      5-min Rain = 0
KNH1 150027Z 07007KT 34/12 A3009 RMK A01 T03390119  RH  026%=      5-min Rain = 0
KNH1 150028Z 08006KT 34/12 A3009 RMK A01 T03390120  RH  027%=      5-min Rain = 0
KNH1 150029Z 08006KT 34/12 A3009 RMK A01 T03390121  RH  027%=      5-min Rain = 0
KNH1 150030Z 08006KT 34/12 A301 RMK A01 T03400120  RH  026%=      5-min Rain = 0
KNH1 150031Z 09006KT 34/12 A301 RMK A01 T03400123  RH  027%=      5-min Rain = 0
KNH1 150032Z 09008KT 34/13 A301 RMK A01 T03390128  RH  028%=      5-min Rain = 0
KNH1 150033Z 09009KT 34/13 A301 RMK A01 T03380129  RH  028%=      5-min Rain = 0
KNH1 150034Z 09006KT 34/13 A301 RMK A01 T03370128  RH  028%=      5-min Rain = 0
KNH1 150035Z 09006KT 34/13 A301 RMK A01 T03360128  RH  028%=      5-min Rain = 0
KNH1 150036Z 10005KT 34/13 A301 RMK A01 T03360129  RH  029%=      5-min Rain = 0
KNH1 150037Z 09005KT 34/13 A301 RMK A01 T03360130  RH  029%=      5-min Rain = 0
KNH1 150038Z 09004KT 34/13 A301 RMK A01 T03360129  RH  028%=      5-min Rain = 0
KNH1 150039Z 10004KT 34/13 A301 RMK A01 T03370129  RH  029%=      5-min Rain = 0
KNH1 150040Z 09004KT 34/13 A301 RMK A01 T03370131  RH  029%=      5-min Rain = 0
KNH1 150041Z 11005KT 34/13 A301 RMK A01 T03360131  RH  029%=      5-min Rain = 0
KNH1 150042Z 10006KT 34/13 A301 RMK A01 T03350132  RH  029%=      5-min Rain = 0
KNH1 150043Z 09007KT 34/13 A301 RMK A01 T03350132  RH  029%=      5-min Rain = 0
KNH1 150044Z 10005KT 33/13 A301 RMK A01 T03340134  RH  030%=      5-min Rain = 0
KNH1 150045Z 10006KT 33/13 A301 RMK A01 T03330134  RH  030%=      5-min Rain = 0
KNH1 150046Z 10005KT 33/13 A301 RMK A01 T03320133  RH  030%=      5-min Rain = 0
KNH1 150047Z 09005KT 33/13 A301 RMK A01 T03310134  RH  030%=      5-min Rain = 0
KNH1 150048Z 09006KT 33/13 A301 RMK A01 T03300133  RH  030%=      5-min Rain = 0
KNH1 150049Z 08006KT 33/13 A301 RMK A01 T03300132  RH  030%=      5-min Rain = 0
KNH1 150050Z 08006KT 33/13 A301 RMK A01 T03300130  RH  030%=      5-min Rain = 0
KNH1 150051Z 10007KT 33/13 A301 RMK A01 T03300130  RH  030%=      5-min Rain = 0
KNH1 150052Z 09007KT 33/13 A301 RMK A01 T03300130  RH  030%=      5-min Rain = 0
KNH1 150053Z 10004KT 33/13 A301 RMK A01 T03290129  RH  030%=      5-min Rain = 0
KNH1 150054Z 09005KT 33/13 A301 RMK A01 T03300130  RH  030%=      5-min Rain = 0
KNH1 150055Z 10005KT 33/13 A301 RMK A01 T03290129  RH  030%=      5-min Rain = 0
KNH1 150056Z 10004KT 33/13 A301 RMK A01 T03290130  RH  030%=      5-min Rain = 0
KNH1 150057Z 10004KT 33/13 A301 RMK A01 T03290131  RH  030%=      5-min Rain = 0
KNH1 150058Z 10006KT 33/13 A301 RMK A01 T03290131  RH  030%=      5-min Rain = 0
KNH1 150059Z 09004KT 33/13 A301 RMK A01 T03280131  RH  030%=      5-min Rain = 0
KNH1 150100Z 09005KT 33/13 A301 RMK A01 T03280131  RH  030%=      5-min Rain = 0
KNH1 150101Z 10006KT 33/13 A301 RMK A01 T03280131  RH  030%=      5-min Rain = 0
KNH1 150102Z 09006KT 33/13 A301 RMK A01 T03280131  RH  030%=      5-min Rain = 0
KNH1 150103Z 09005KT 33/13 A301 RMK A01 T03270131  RH  031%=      5-min Rain = 0
KNH1 150104Z 09007KT 33/13 A301 RMK A01 T03260130  RH  030%=      5-min Rain = 0
KNH1 150105Z 09005KT 33/13 A301 RMK A01 T03260129  RH  030%=      5-min Rain = 0
KNH1 150106Z 09004KT 33/13 A301 RMK A01 T03260130  RH  030%=      5-min Rain = 0
KNH1 150107Z 10004KT 33/13 A301 RMK A01 T03260130  RH  030%=      5-min Rain = 0
KNH1 150108Z 09005KT 33/13 A301 RMK A01 T03260132  RH  031%=      5-min Rain = 0
KNH1 150109Z 09005KT 33/13 A301 RMK A01 T03250132  RH  031%=      5-min Rain = 0
KNH1 150110Z 09006KT 32/13 A301 RMK A01 T03240130  RH  031%=      5-min Rain = 0
KNH1 150111Z 09006KT 32/13 A301 RMK A01 T03240130  RH  031%=      5-min Rain = 0
KNH1 150112Z 09005KT 32/13 A3011 RMK A01 T03230129  RH  031%=      5-min Rain = 0
KNH1 150113Z 09006KT 32/13 A3011 RMK A01 T03230129  RH  031%=      5-min Rain = 0
KNH1 150114Z 09005KT 32/13 A3011 RMK A01 T03230130  RH  031%=      5-min Rain = 0
KNH1 150115Z 09004KT 32/13 A3011 RMK A01 T03230130  RH  031%=      5-min Rain = 0
KNH1 150116Z 09005KT 32/13 A3011 RMK A01 T03220129  RH  031%=      5-min Rain = 0
KNH1 150117Z 09005KT 32/13 A3011 RMK A01 T03220129  RH  031%=      5-min Rain = 0
KNH1 150118Z 09005KT 32/13 A3011 RMK A01 T03210129  RH  031%=      5-min Rain = 0
KNH1 150119Z 09004KT 32/13 A3011 RMK A01 T03200129  RH  031%=      5-min Rain = 0
KNH1 150120Z 12003KT 32/13 A3011 RMK A01 T03200130  RH  032%=      5-min Rain = 0
KNH1 150121Z 13003KT 32/13 A3011 RMK A01 T03190133  RH  032%=      5-min Rain = 0
KNH1 150122Z 12004KT 32/13 A3011 RMK A01 T03180134  RH  033%=      5-min Rain = 0
KNH1 150123Z 11005KT 32/14 A3011 RMK A01 T03160136  RH  033%=      5-min Rain = 0
KNH1 150124Z 10004KT 31/14 A3011 RMK A01 T03140136  RH  034%=      5-min Rain = 0
KNH1 150125Z 11004KT 31/14 A3011 RMK A01 T03130136  RH  034%=      5-min Rain = 0
KNH1 150126Z 12004KT 31/14 A3011 RMK A01 T03120137  RH  034%=      5-min Rain = 0
KNH1 150127Z 11004KT 31/14 A3011 RMK A01 T03110137  RH  035%=      5-min Rain = 0
KNH1 150128Z 10002KT 31/14 A3011 RMK A01 T03100137  RH  035%=      5-min Rain = 0
KNH1 150129Z 11004KT 31/14 A3011 RMK A01 T03090137  RH  035%=      5-min Rain = 0
KNH1 150130Z 10003KT 31/14 A3011 RMK A01 T03080137  RH  035%=      5-min Rain = 0
KNH1 150131Z 11002KT 31/14 A3011 RMK A01 T03070137  RH  035%=      5-min Rain = 0
KNH1 150132Z 11003KT 31/14 A3011 RMK A01 T03070137  RH  036%=      5-min Rain = 0
KNH1 150133Z 10003KT 31/14 A3011 RMK A01 T03050137  RH  036%=      5-min Rain = 0
KNH1 150134Z 11002KT 31/14 A3011 RMK A01 T03050138  RH  036%=      5-min Rain = 0
KNH1 150135Z 11003KT 30/14 A3011 RMK A01 T03040138  RH  036%=      5-min Rain = 0
KNH1 150136Z 11003KT 30/14 A3012 RMK A01 T03030138  RH  036%=      5-min Rain = 0
KNH1 150137Z 10002KT 30/14 A3012 RMK A01 T03020138  RH  037%=      5-min Rain = 0
KNH1 150138Z 10003KT 30/14 A3012 RMK A01 T03020138  RH  037%=      5-min Rain = 0
KNH1 150139Z 11002KT 30/14 A3012 RMK A01 T03010138  RH  037%=      5-min Rain = 0
KNH1 150140Z 11003KT 30/14 A3012 RMK A01 T03000138  RH  037%=      5-min Rain = 0
KNH1 150141Z 10002KT 30/14 A3012 RMK A01 T02990138  RH  037%=      5-min Rain = 0
KNH1 150142Z 10002KT 30/14 A3012 RMK A01 T02990138  RH  038%=      5-min Rain = 0
KNH1 150143Z 10002KT 30/14 A3012 RMK A01 T02980139  RH  038%=      5-min Rain = 0
KNH1 150144Z 10003KT 30/14 A3012 RMK A01 T02970138  RH  038%=      5-min Rain = 0
KNH1 150145Z 10003KT 30/14 A3012 RMK A01 T02980139  RH  038%=      5-min Rain = 0
KNH1 150146Z 10003KT 30/14 A3013 RMK A01 T02970139  RH  038%=      5-min Rain = 0
KNH1 150147Z 10003KT 30/14 A3013 RMK A01 T02960139  RH  038%=      5-min Rain = 0
KNH1 150148Z 11003KT 30/14 A3013 RMK A01 T02960139  RH  038%=      5-min Rain = 0
KNH1 150149Z 11003KT 30/14 A3013 RMK A01 T02950139  RH  038%=      5-min Rain = 0
KNH1 150150Z 11003KT 30/14 A3013 RMK A01 T02950139  RH  038%=      5-min Rain = 0
KNH1 150151Z 11003KT 29/14 A3013 RMK A01 T02940138  RH  039%=      5-min Rain = 0
KNH1 150152Z 12003KT 29/14 A3013 RMK A01 T02930139  RH  039%=      5-min Rain = 0
KNH1 150153Z 11004KT 29/14 A3013 RMK A01 T02930139  RH  039%=      5-min Rain = 0
KNH1 150154Z 11003KT 29/14 A3013 RMK A01 T02930139  RH  039%=      5-min Rain = 0
KNH1 150155Z 11003KT 29/14 A3013 RMK A01 T02920139  RH  039%=      5-min Rain = 0
KNH1 150156Z 11003KT 29/14 A3013 RMK A01 T02920139  RH  039%=      5-min Rain = 0
KNH1 150157Z 11003KT 29/14 A3013 RMK A01 T02930139  RH  039%=      5-min Rain = 0
KNH1 150158Z 10003KT 29/14 A3013 RMK A01 T02920139  RH  039%=      5-min Rain = 0
KNH1 150159Z 11003KT 29/14 A3013 RMK A01 T02920139  RH  039%=      5-min Rain = 0
KNH1 150200Z 11004KT 29/14 A3013 RMK A01 T02910139  RH  039%=      5-min Rain = 0
KNH1 150201Z 11004KT 29/14 A3013 RMK A01 T02900139  RH  039%=      5-min Rain = 0
KNH1 150202Z 11004KT 29/14 A3013 RMK A01 T02900139  RH  039%=      5-min Rain = 0
KNH1 150203Z 11004KT 29/14 A3013 RMK A01 T02900139  RH  039%=      5-min Rain = 0
KNH1 150204Z 11003KT 29/14 A3013 RMK A01 T02910139  RH  039%=      5-min Rain = 0
KNH1 150205Z 10003KT 29/14 A3013 RMK A01 T02910139  RH  039%=      5-min Rain = 0
KNH1 150206Z 10004KT 29/14 A3013 RMK A01 T02910139  RH  039%=      5-min Rain = 0
KNH1 150207Z 11004KT 29/14 A3013 RMK A01 T02900138  RH  040%=      5-min Rain = 0
KNH1 150208Z 11004KT 29/14 A3013 RMK A01 T02890138  RH  040%=      5-min Rain = 0
KNH1 150209Z 10004KT 29/14 A3013 RMK A01 T02890138  RH  040%=      5-min Rain = 0
KNH1 150210Z 10004KT 29/14 A3013 RMK A01 T02880138  RH  040%=      5-min Rain = 0
KNH1 150211Z 10004KT 29/14 A3014 RMK A01 T02870137  RH  040%=      5-min Rain = 0
KNH1 150212Z 10004KT 29/14 A3014 RMK A01 T02870137  RH  040%=      5-min Rain = 0
KNH1 150213Z 10004KT 29/14 A3014 RMK A01 T02860137  RH  040%=      5-min Rain = 0
KNH1 150214Z 11004KT 29/14 A3014 RMK A01 T02860138  RH  040%=      5-min Rain = 0
KNH1 150215Z 10004KT 29/14 A3014 RMK A01 T02850137  RH  040%=      5-min Rain = 0
KNH1 150216Z 11003KT 29/14 A3014 RMK A01 T02850138  RH  040%=      5-min Rain = 0
KNH1 150217Z 11002KT 29/14 A3014 RMK A01 T02850138  RH  041%=      5-min Rain = 0
KNH1 150218Z 11003KT 28/14 A3014 RMK A01 T02840138  RH  041%=      5-min Rain = 0
KNH1 150219Z 11004KT 28/14 A3014 RMK A01 T02840139  RH  041%=      5-min Rain = 0
KNH1 150220Z 11004KT 28/14 A3014 RMK A01 T02830139  RH  041%=      5-min Rain = 0
KNH1 150221Z 11004KT 28/14 A3014 RMK A01 T02830139  RH  041%=      5-min Rain = 0
KNH1 150222Z 11004KT 28/14 A3014 RMK A01 T02830139  RH  041%=      5-min Rain = 0
KNH1 150223Z 11003KT 28/14 A3014 RMK A01 T02830139  RH  041%=      5-min Rain = 0
KNH1 150224Z 11004KT 28/14 A3014 RMK A01 T02830139  RH  041%=      5-min Rain = 0
KNH1 150225Z 11004KT 28/14 A3014 RMK A01 T02820139  RH  041%=      5-min Rain = 0
KNH1 150226Z 11004KT 28/14 A3014 RMK A01 T02820139  RH  041%=      5-min Rain = 0
KNH1 150227Z 11003KT 28/14 A3014 RMK A01 T02810139  RH  042%=      5-min Rain = 0
KNH1 150228Z 10003KT 28/14 A3014 RMK A01 T02800139  RH  042%=      5-min Rain = 0
KNH1 150229Z 11002KT 28/14 A3014 RMK A01 T02800139  RH  042%=      5-min Rain = 0
KNH1 150230Z 10003KT 28/14 A3014 RMK A01 T02790139  RH  042%=      5-min Rain = 0
KNH1 150231Z 10003KT 28/14 A3014 RMK A01 T02790139  RH  042%=      5-min Rain = 0
KNH1 150232Z 10004KT 28/14 A3015 RMK A01 T02790139  RH  042%=      5-min Rain = 0
KNH1 150233Z 09004KT 28/14 A3015 RMK A01 T02790139  RH  042%=      5-min Rain = 0
KNH1 150234Z 09004KT 28/14 A3015 RMK A01 T02790139  RH  042%=      5-min Rain = 0
KNH1 150235Z 09004KT 28/14 A3015 RMK A01 T02790139  RH  042%=      5-min Rain = 0
KNH1 150236Z 09004KT 28/14 A3015 RMK A01 T02790139  RH  042%=      5-min Rain = 0
KNH1 150237Z 09004KT 28/14 A3015 RMK A01 T02790139  RH  042%=      5-min Rain = 0
KNH1 150238Z 09004KT 28/14 A3015 RMK A01 T02790139  RH  042%=      5-min Rain = 0
KNH1 150239Z 09004KT 28/14 A3015 RMK A01 T02790140  RH  042%=      5-min Rain = 0
KNH1 150240Z 09004KT 28/14 A3015 RMK A01 T02790140  RH  042%=      5-min Rain = 0
KNH1 150241Z 10004KT 28/14 A3015 RMK A01 T02790140  RH  043%=      5-min Rain = 0
KNH1 150242Z 09004KT 28/14 A3015 RMK A01 T02790140  RH  043%=      5-min Rain = 0
KNH1 150243Z 09004KT 28/14 A3015 RMK A01 T02790140  RH  042%=      5-min Rain = 0
KNH1 150244Z 09004KT 28/14 A3015 RMK A01 T02790140  RH  042%=      5-min Rain = 0
KNH1 150245Z 09004KT 28/14 A3015 RMK A01 T02790139  RH  042%=      5-min Rain = 0
KNH1 150246Z 10004KT 28/14 A3015 RMK A01 T02790140  RH  042%=      5-min Rain = 0
KNH1 150247Z 10004KT 28/14 A3015 RMK A01 T02790139  RH  042%=      5-min Rain = 0
KNH1 150248Z 11003KT 28/14 A3015 RMK A01 T02790139  RH  042%=      5-min Rain = 0
KNH1 150249Z 11004KT 28/14 A3015 RMK A01 T02790140  RH  042%=      5-min Rain = 0
KNH1 150250Z 11005KT 28/14 A3015 RMK A01 T02780140  RH  043%=      5-min Rain = 0
KNH1 150251Z 11004KT 28/14 A3015 RMK A01 T02780140  RH  043%=      5-min Rain = 0
KNH1 150252Z 11004KT 28/14 A3015 RMK A01 T02780140  RH  043%=      5-min Rain = 0
KNH1 150253Z 11004KT 28/14 A3015 RMK A01 T02780140  RH  043%=      5-min Rain = 0
KNH1 150254Z 11004KT 28/14 A3015 RMK A01 T02780141  RH  043%=      5-min Rain = 0
KNH1 150255Z 11005KT 28/14 A3015 RMK A01 T02780141  RH  043%=      5-min Rain = 0
KNH1 150256Z 11005KT 28/14 A3015 RMK A01 T02770141  RH  043%=      5-min Rain = 0
KNH1 150257Z 11005KT 28/14 A3015 RMK A01 T02780142  RH  043%=      5-min Rain = 0
KNH1 150258Z 11004KT 28/14 A3015 RMK A01 T02770142  RH  043%=      5-min Rain = 0
KNH1 150259Z 11005KT 28/14 A3015 RMK A01 T02770142  RH  044%=      5-min Rain = 0
KNH1 150300Z 11005KT 28/14 A3015 RMK A01 T02760142  RH  044%=      5-min Rain = 0
KNH1 150301Z 10004KT 28/14 A3015 RMK A01 T02760142  RH  044%=      5-min Rain = 0
KNH1 150302Z 11005KT 28/14 A3015 RMK A01 T02750142  RH  044%=      5-min Rain = 0
KNH1 150303Z 10005KT 28/14 A3015 RMK A01 T02750142  RH  044%=      5-min Rain = 0
KNH1 150304Z 11004KT 27/14 A3015 RMK A01 T02740143  RH  044%=      5-min Rain = 0
KNH1 150305Z 11004KT 27/14 A3016 RMK A01 T02730143  RH  045%=      5-min Rain = 0
KNH1 150306Z 11004KT 27/14 A3016 RMK A01 T02730143  RH  045%=      5-min Rain = 0
KNH1 150307Z 11004KT 27/14 A3016 RMK A01 T02720143  RH  045%=      5-min Rain = 0
KNH1 150308Z 11004KT 27/14 A3016 RMK A01 T02720144  RH  045%=      5-min Rain = 0
KNH1 150309Z 10004KT 27/14 A3016 RMK A01 T02720144  RH  045%=      5-min Rain = 0
KNH1 150310Z 11004KT 27/14 A3016 RMK A01 T02720144  RH  045%=      5-min Rain = 0
KNH1 150311Z 10004KT 27/15 A3016 RMK A01 T02720145  RH  045%=      5-min Rain = 0
KNH1 150312Z 10004KT 27/14 A3016 RMK A01 T02720144  RH  045%=      5-min Rain = 0
KNH1 150313Z 10004KT 27/14 A3016 RMK A01 T02710144  RH  046%=      5-min Rain = 0
KNH1 150314Z 10004KT 27/15 A3016 RMK A01 T02710145  RH  046%=      5-min Rain = 0
KNH1 150315Z 10004KT 27/15 A3016 RMK A01 T02700145  RH  046%=      5-min Rain = 0
KNH1 150316Z 10004KT 27/15 A3016 RMK A01 T02700145  RH  046%=      5-min Rain = 0
KNH1 150317Z 10004KT 27/15 A3016 RMK A01 T02690145  RH  047%=      5-min Rain = 0
KNH1 150318Z 10005KT 27/15 A3016 RMK A01 T02690146  RH  047%=      5-min Rain = 0
KNH1 150319Z 10004KT 27/15 A3016 RMK A01 T02690146  RH  047%=      5-min Rain = 0
KNH1 150320Z 10004KT 27/15 A3016 RMK A01 T02690146  RH  047%=      5-min Rain = 0
KNH1 150321Z 10005KT 27/15 A3016 RMK A01 T02690146  RH  047%=      5-min Rain = 0
KNH1 150322Z 10005KT 27/15 A3016 RMK A01 T02690146  RH  047%=      5-min Rain = 0
KNH1 150323Z 11005KT 27/15 A3016 RMK A01 T02690146  RH  047%=      5-min Rain = 0
KNH1 150324Z 10005KT 27/15 A3016 RMK A01 T02700147  RH  047%=      5-min Rain = 0
KNH1 150325Z 10005KT 27/15 A3016 RMK A01 T02700147  RH  047%=      5-min Rain = 0
KNH1 150326Z 10005KT 27/15 A3016 RMK A01 T02700147  RH  047%=      5-min Rain = 0
KNH1 150327Z 10004KT 27/15 A3016 RMK A01 T02700147  RH  047%=      5-min Rain = 0
KNH1 150328Z 10004KT 27/15 A3016 RMK A01 T02700148  RH  047%=      5-min Rain = 0
KNH1 150329Z 10005KT 27/15 A3016 RMK A01 T02710148  RH  047%=      5-min Rain = 0
KNH1 150330Z 10005KT 27/15 A3016 RMK A01 T02700148  RH  047%=      5-min Rain = 0
KNH1 150331Z 10005KT 27/15 A3017 RMK A01 T02700148  RH  047%=      5-min Rain = 0
KNH1 150332Z 10005KT 27/15 A3017 RMK A01 T02690148  RH  047%=      5-min Rain = 0
KNH1 150333Z 10005KT 27/15 A3017 RMK A01 T02690148  RH  048%=      5-min Rain = 0
KNH1 150334Z 10005KT 27/15 A3017 RMK A01 T02680148  RH  048%=      5-min Rain = 0
KNH1 150335Z 10005KT 27/15 A3017 RMK A01 T02680149  RH  048%=      5-min Rain = 0
KNH1 150336Z 11004KT 27/15 A3017 RMK A01 T02680149  RH  048%=      5-min Rain = 0
KNH1 150337Z 11005KT 27/15 A3017 RMK A01 T02680149  RH  048%=      5-min Rain = 0
KNH1 150338Z 11005KT 27/15 A3017 RMK A01 T02680149  RH  048%=      5-min Rain = 0
KNH1 150339Z 11006KT 27/15 A3017 RMK A01 T02680150  RH  048%=      5-min Rain = 0
KNH1 150340Z 12006KT 27/15 A3017 RMK A01 T02680150  RH  048%=      5-min Rain = 0
KNH1 150341Z 12005KT 27/15 A3017 RMK A01 T02690151  RH  048%=      5-min Rain = 0
KNH1 150342Z 12004KT 27/15 A3017 RMK A01 T02690150  RH  048%=      5-min Rain = 0
KNH1 150343Z 12004KT 27/15 A3017 RMK A01 T02690150  RH  048%=      5-min Rain = 0
KNH1 150344Z 12005KT 27/15 A3017 RMK A01 T02690151  RH  048%=      5-min Rain = 0
KNH1 150345Z 12005KT 27/15 A3017 RMK A01 T02690151  RH  048%=      5-min Rain = 0
KNH1 150346Z 12004KT 27/15 A3017 RMK A01 T02690151  RH  048%=      5-min Rain = 0
KNH1 150347Z 12005KT 27/15 A3017 RMK A01 T02690152  RH  049%=      5-min Rain = 0
KNH1 150348Z 11005KT 27/15 A3017 RMK A01 T02690151  RH  048%=      5-min Rain = 0
KNH1 150349Z 12005KT 27/15 A3017 RMK A01 T02690151  RH  048%=      5-min Rain = 0
KNH1 150350Z 12005KT 27/15 A3017 RMK A01 T02690152  RH  048%=      5-min Rain = 0
KNH1 150351Z 11005KT 27/15 A3017 RMK A01 T02700152  RH  048%=      5-min Rain = 0
KNH1 150352Z 11005KT 27/15 A3017 RMK A01 T02700152  RH  048%=      5-min Rain = 0
KNH1 150353Z 10005KT 27/15 A3017 RMK A01 T02700152  RH  048%=      5-min Rain = 0
KNH1 150354Z 10005KT 27/15 A3018 RMK A01 T02700152  RH  048%=      5-min Rain = 0
KNH1 150355Z 10005KT 27/15 A3018 RMK A01 T02690152  RH  049%=      5-min Rain = 0
KNH1 150356Z 11004KT 27/15 A3018 RMK A01 T02680152  RH  049%=      5-min Rain = 0
KNH1 150357Z 11004KT 27/15 A3018 RMK A01 T02670152  RH  049%=      5-min Rain = 0
KNH1 150358Z 11004KT 27/15 A3018 RMK A01 T02660152  RH  050%=      5-min Rain = 0
KNH1 150359Z 11004KT 27/15 A3018 RMK A01 T02660152  RH  050%=      5-min Rain = 0
KNH1 150400Z 11006KT 27/15 A3018 RMK A01 T02650152  RH  050%=      5-min Rain = 0
KNH1 150401Z 11005KT 27/15 A3018 RMK A01 T02650152  RH  050%=      5-min Rain = 0
KNH1 150402Z 10004KT 27/15 A3018 RMK A01 T02650152  RH  050%=      5-min Rain = 0
KNH1 150403Z 11006KT 26/15 A3018 RMK A01 T02640152  RH  050%=      5-min Rain = 0
KNH1 150404Z 11005KT 27/15 A3018 RMK A01 T02650152  RH  050%=      5-min Rain = 0
KNH1 150405Z 11005KT 26/15 A3018 RMK A01 T02640152  RH  050%=      5-min Rain = 0
KNH1 150406Z 11006KT 27/15 A3018 RMK A01 T02650152  RH  050%=      5-min Rain = 0
KNH1 150407Z 11005KT 27/15 A3018 RMK A01 T02650152  RH  050%=      5-min Rain = 0
KNH1 150408Z 11005KT 26/15 A3018 RMK A01 T02640152  RH  050%=      5-min Rain = 0
KNH1 150409Z 11005KT 26/15 A3018 RMK A01 T02640152  RH  050%=      5-min Rain = 0
KNH1 150410Z 12004KT 26/15 A3018 RMK A01 T02640152  RH  050%=      5-min Rain = 0
KNH1 150411Z 12004KT 26/15 A3018 RMK A01 T02640152  RH  050%=      5-min Rain = 0
KNH1 150412Z 12003KT 26/15 A3018 RMK A01 T02630152  RH  050%=      5-min Rain = 0
KNH1 150413Z 12003KT 26/15 A3018 RMK A01 T02630152  RH  050%=      5-min Rain = 0
KNH1 150414Z 12004KT 26/15 A3018 RMK A01 T02620152  RH  051%=      5-min Rain = 0
KNH1 150415Z 12004KT 26/15 A3018 RMK A01 T02620152  RH  051%=      5-min Rain = 0
KNH1 150416Z 12004KT 26/15 A3018 RMK A01 T02620152  RH  051%=      5-min Rain = 0
KNH1 150417Z 11004KT 26/15 A3018 RMK A01 T02610152  RH  051%=      5-min Rain = 0
KNH1 150418Z 11005KT 26/15 A3018 RMK A01 T02610152  RH  051%=      5-min Rain = 0
KNH1 150419Z 11004KT 26/15 A3018 RMK A01 T02610152  RH  051%=      5-min Rain = 0
KNH1 150420Z 11004KT 26/15 A3018 RMK A01 T02600151  RH  051%=      5-min Rain = 0
KNH1 150421Z 11004KT 26/15 A3018 RMK A01 T02590152  RH  051%=      5-min Rain = 0
KNH1 150422Z 11003KT 26/15 A3018 RMK A01 T02590152  RH  052%=      5-min Rain = 0
KNH1 150423Z 11004KT 26/15 A3018 RMK A01 T02590152  RH  052%=      5-min Rain = 0
KNH1 150424Z 11003KT 26/15 A3018 RMK A01 T02570151  RH  052%=      5-min Rain = 0
KNH1 150425Z 11005KT 26/15 A3018 RMK A01 T02570151  RH  052%=      5-min Rain = 0
KNH1 150426Z 10004KT 26/15 A3018 RMK A01 T02560151  RH  052%=      5-min Rain = 0
KNH1 150427Z 11004KT 26/15 A3018 RMK A01 T02560152  RH  053%=      5-min Rain = 0
KNH1 150428Z 11005KT 26/15 A3018 RMK A01 T02560152  RH  053%=      5-min Rain = 0
KNH1 150429Z 11005KT 26/15 A3018 RMK A01 T02550151  RH  053%=      5-min Rain = 0
KNH1 150430Z 10005KT 26/15 A3018 RMK A01 T02550151  RH  052%=      5-min Rain = 0
KNH1 150431Z 10005KT 26/15 A3018 RMK A01 T02550151  RH  052%=      5-min Rain = 0
KNH1 150432Z 10005KT 26/15 A3018 RMK A01 T02550151  RH  052%=      5-min Rain = 0
KNH1 150433Z 10005KT 26/15 A3018 RMK A01 T02550151  RH  052%=      5-min Rain = 0
KNH1 150434Z 10005KT 26/15 A3018 RMK A01 T02550151  RH  052%=      5-min Rain = 0
KNH1 150435Z 10005KT 26/15 A3018 RMK A01 T02550151  RH  053%=      5-min Rain = 0
KNH1 150436Z 10005KT 26/15 A3018 RMK A01 T02550151  RH  053%=      5-min Rain = 0
KNH1 150437Z 10005KT 26/15 A3018 RMK A01 T02550151  RH  053%=      5-min Rain = 0
KNH1 150438Z 10005KT 26/15 A3018 RMK A01 T02550152  RH  053%=      5-min Rain = 0
KNH1 150439Z 10006KT 25/15 A3018 RMK A01 T02540152  RH  053%=      5-min Rain = 0
KNH1 150440Z 11005KT 25/15 A3018 RMK A01 T02540152  RH  053%=      5-min Rain = 0
KNH1 150441Z 11006KT 26/15 A3018 RMK A01 T02550152  RH  053%=      5-min Rain = 0
KNH1 150442Z 10005KT 26/15 A3018 RMK A01 T02550153  RH  053%=      5-min Rain = 0
KNH1 150443Z 11005KT 26/15 A3018 RMK A01 T02550153  RH  053%=      5-min Rain = 0
KNH1 150444Z 10005KT 26/15 A3018 RMK A01 T02550153  RH  053%=      5-min Rain = 0
KNH1 150445Z 11006KT 26/15 A3018 RMK A01 T02550153  RH  053%=      5-min Rain = 0
KNH1 150446Z 11005KT 26/15 A3018 RMK A01 T02560154  RH  053%=      5-min Rain = 0
KNH1 150447Z 11005KT 26/15 A3018 RMK A01 T02560154  RH  053%=      5-min Rain = 0
KNH1 150448Z 11004KT 26/15 A3018 RMK A01 T02560153  RH  053%=      5-min Rain = 0
KNH1 150449Z 11005KT 26/15 A3018 RMK A01 T02560154  RH  053%=      5-min Rain = 0
KNH1 150450Z 11004KT 26/15 A3018 RMK A01 T02560154  RH  053%=      5-min Rain = 0
KNH1 150451Z 10004KT 26/15 A3018 RMK A01 T02560154  RH  053%=      5-min Rain = 0
KNH1 150452Z 11005KT 26/15 A3018 RMK A01 T02560154  RH  053%=      5-min Rain = 0
KNH1 150453Z 11005KT 26/15 A3018 RMK A01 T02570154  RH  053%=      5-min Rain = 0
KNH1 150454Z 11005KT 26/16 A3018 RMK A01 T02570155  RH  053%=      5-min Rain = 0
KNH1 150455Z 11005KT 26/16 A3018 RMK A01 T02580155  RH  053%=      5-min Rain = 0
KNH1 150456Z 11006KT 26/16 A3018 RMK A01 T02580155  RH  053%=      5-min Rain = 0
KNH1 150457Z 11004KT 26/16 A3018 RMK A01 T02580155  RH  053%=      5-min Rain = 0
KNH1 150458Z 11005KT 26/16 A3018 RMK A01 T02590156  RH  053%=      5-min Rain = 0
KNH1 150459Z 12006KT 26/16 A3018 RMK A01 T02590156  RH  053%=      5-min Rain = 0

Page generated in 0.1179 seconds.